<?xml version="1.0" encoding="UTF-8" standalone="no" ?>
<gpx xmlns="http://www.topografix.com/GPX/1/1" xmlns:xsi="http://www.w3.org/2001/XMLSchema-instance" xsi:schemaLocation="http://www.topografix.com/GPX/1/1 http://www.topografix.com/GPX/1/1/gpx.xsd" version="1.1" creator="VisuGPX - https://www.visugpx.com">
  <metadata>
    <name>autre</name>
    <desc><![CDATA[Guillaume et Pierre]]></desc>
  </metadata>
  <trk>
    <name><![CDATA[ACTIVE LOG: 23 FEV 2014 10:06]]></name>
    <trkseg>
      <trkpt lat="45.77713" lon="4.84515">
        <ele>94.83</ele>
        <time>2014-02-23T09:06:22Z</time>
      </trkpt>
      <trkpt lat="45.77714" lon="4.84518">
        <ele>94.83</ele>
        <time>2014-02-23T09:06:23Z</time>
      </trkpt>
      <trkpt lat="45.77685" lon="4.84565">
        <ele>94.83</ele>
        <time>2014-02-23T09:06:43Z</time>
      </trkpt>
      <trkpt lat="45.77663" lon="4.84603">
        <ele>94.35</ele>
        <time>2014-02-23T09:06:56Z</time>
      </trkpt>
      <trkpt lat="45.77634" lon="4.84646">
        <ele>94.83</ele>
        <time>2014-02-23T09:07:09Z</time>
      </trkpt>
      <trkpt lat="45.77617" lon="4.84684">
        <ele>95.31</ele>
        <time>2014-02-23T09:07:21Z</time>
      </trkpt>
      <trkpt lat="45.77597" lon="4.84725">
        <ele>95.31</ele>
        <time>2014-02-23T09:07:33Z</time>
      </trkpt>
      <trkpt lat="45.77583" lon="4.8477">
        <ele>96.27</ele>
        <time>2014-02-23T09:07:46Z</time>
      </trkpt>
      <trkpt lat="45.77567" lon="4.84806">
        <ele>96.27</ele>
        <time>2014-02-23T09:07:58Z</time>
      </trkpt>
      <trkpt lat="45.77552" lon="4.84863">
        <ele>97.23</ele>
        <time>2014-02-23T09:08:11Z</time>
      </trkpt>
      <trkpt lat="45.77536" lon="4.84908">
        <ele>97.71</ele>
        <time>2014-02-23T09:08:24Z</time>
      </trkpt>
      <trkpt lat="45.77514" lon="4.84946">
        <ele>98.67</ele>
        <time>2014-02-23T09:08:36Z</time>
      </trkpt>
      <trkpt lat="45.77495" lon="4.84987">
        <ele>99.15</ele>
        <time>2014-02-23T09:08:49Z</time>
      </trkpt>
      <trkpt lat="45.77475" lon="4.85027">
        <ele>100.11</ele>
        <time>2014-02-23T09:09:02Z</time>
      </trkpt>
      <trkpt lat="45.77451" lon="4.85072">
        <ele>100.6</ele>
        <time>2014-02-23T09:09:15Z</time>
      </trkpt>
      <trkpt lat="45.77434" lon="4.85111">
        <ele>101.08</ele>
        <time>2014-02-23T09:09:27Z</time>
      </trkpt>
      <trkpt lat="45.77406" lon="4.85138">
        <ele>101.08</ele>
        <time>2014-02-23T09:09:39Z</time>
      </trkpt>
      <trkpt lat="45.7738" lon="4.85148">
        <ele>103</ele>
        <time>2014-02-23T09:09:51Z</time>
      </trkpt>
      <trkpt lat="45.77353" lon="4.85171">
        <ele>102.52</ele>
        <time>2014-02-23T09:10:04Z</time>
      </trkpt>
      <trkpt lat="45.77342" lon="4.85203">
        <ele>103</ele>
        <time>2014-02-23T09:10:12Z</time>
      </trkpt>
      <trkpt lat="45.7734" lon="4.85252">
        <ele>103</ele>
        <time>2014-02-23T09:10:24Z</time>
      </trkpt>
      <trkpt lat="45.77326" lon="4.85292">
        <ele>102.52</ele>
        <time>2014-02-23T09:10:37Z</time>
      </trkpt>
      <trkpt lat="45.77318" lon="4.85326">
        <ele>103</ele>
        <time>2014-02-23T09:10:49Z</time>
      </trkpt>
      <trkpt lat="45.77301" lon="4.85362">
        <ele>103</ele>
        <time>2014-02-23T09:10:59Z</time>
      </trkpt>
      <trkpt lat="45.77304" lon="4.85391">
        <ele>103.96</ele>
        <time>2014-02-23T09:11:10Z</time>
      </trkpt>
      <trkpt lat="45.77319" lon="4.85403">
        <ele>103.96</ele>
        <time>2014-02-23T09:11:15Z</time>
      </trkpt>
      <trkpt lat="45.77355" lon="4.85423">
        <ele>103.48</ele>
        <time>2014-02-23T09:11:29Z</time>
      </trkpt>
      <trkpt lat="45.77366" lon="4.85457">
        <ele>103.96</ele>
        <time>2014-02-23T09:11:42Z</time>
      </trkpt>
      <trkpt lat="45.77373" lon="4.85496">
        <ele>103.96</ele>
        <time>2014-02-23T09:11:53Z</time>
      </trkpt>
      <trkpt lat="45.77377" lon="4.85534">
        <ele>103.96</ele>
        <time>2014-02-23T09:12:03Z</time>
      </trkpt>
      <trkpt lat="45.77392" lon="4.85559">
        <ele>103.48</ele>
        <time>2014-02-23T09:12:10Z</time>
      </trkpt>
      <trkpt lat="45.77408" lon="4.85577">
        <ele>103</ele>
        <time>2014-02-23T09:12:19Z</time>
      </trkpt>
      <trkpt lat="45.77415" lon="4.85624">
        <ele>103.96</ele>
        <time>2014-02-23T09:12:33Z</time>
      </trkpt>
      <trkpt lat="45.77429" lon="4.85664">
        <ele>103.96</ele>
        <time>2014-02-23T09:12:46Z</time>
      </trkpt>
      <trkpt lat="45.7745" lon="4.85688">
        <ele>103.96</ele>
        <time>2014-02-23T09:12:56Z</time>
      </trkpt>
      <trkpt lat="45.7749" lon="4.85709">
        <ele>103.48</ele>
        <time>2014-02-23T09:13:11Z</time>
      </trkpt>
      <trkpt lat="45.77529" lon="4.85724">
        <ele>103</ele>
        <time>2014-02-23T09:13:26Z</time>
      </trkpt>
      <trkpt lat="45.7757" lon="4.85733">
        <ele>102.04</ele>
        <time>2014-02-23T09:13:38Z</time>
      </trkpt>
      <trkpt lat="45.77592" lon="4.85755">
        <ele>102.04</ele>
        <time>2014-02-23T09:13:50Z</time>
      </trkpt>
      <trkpt lat="45.77616" lon="4.85782">
        <ele>102.04</ele>
        <time>2014-02-23T09:14:04Z</time>
      </trkpt>
      <trkpt lat="45.77637" lon="4.85803">
        <ele>102.52</ele>
        <time>2014-02-23T09:14:14Z</time>
      </trkpt>
      <trkpt lat="45.77664" lon="4.85825">
        <ele>102.04</ele>
        <time>2014-02-23T09:14:24Z</time>
      </trkpt>
      <trkpt lat="45.77672" lon="4.85841">
        <ele>102.52</ele>
        <time>2014-02-23T09:14:31Z</time>
      </trkpt>
      <trkpt lat="45.77687" lon="4.85855">
        <ele>102.04</ele>
        <time>2014-02-23T09:14:37Z</time>
      </trkpt>
      <trkpt lat="45.77716" lon="4.85852">
        <ele>102.52</ele>
        <time>2014-02-23T09:14:43Z</time>
      </trkpt>
      <trkpt lat="45.77741" lon="4.85847">
        <ele>102.52</ele>
        <time>2014-02-23T09:14:49Z</time>
      </trkpt>
      <trkpt lat="45.77753" lon="4.85849">
        <ele>102.52</ele>
        <time>2014-02-23T09:14:52Z</time>
      </trkpt>
      <trkpt lat="45.77762" lon="4.85848">
        <ele>102.52</ele>
        <time>2014-02-23T09:14:55Z</time>
      </trkpt>
      <trkpt lat="45.77781" lon="4.85833">
        <ele>102.52</ele>
        <time>2014-02-23T09:15:03Z</time>
      </trkpt>
      <trkpt lat="45.77816" lon="4.85847">
        <ele>102.52</ele>
        <time>2014-02-23T09:15:13Z</time>
      </trkpt>
      <trkpt lat="45.77835" lon="4.85854">
        <ele>102.04</ele>
        <time>2014-02-23T09:15:18Z</time>
      </trkpt>
      <trkpt lat="45.7786" lon="4.85869">
        <ele>103.48</ele>
        <time>2014-02-23T09:15:28Z</time>
      </trkpt>
      <trkpt lat="45.77864" lon="4.85873">
        <ele>103.48</ele>
        <time>2014-02-23T09:15:30Z</time>
      </trkpt>
      <trkpt lat="45.77889" lon="4.85872">
        <ele>102.52</ele>
        <time>2014-02-23T09:15:36Z</time>
      </trkpt>
      <trkpt lat="45.77914" lon="4.85872">
        <ele>103.48</ele>
        <time>2014-02-23T09:15:47Z</time>
      </trkpt>
      <trkpt lat="45.77942" lon="4.85876">
        <ele>103.96</ele>
        <time>2014-02-23T09:15:56Z</time>
      </trkpt>
      <trkpt lat="45.77946" lon="4.85877">
        <ele>103.96</ele>
        <time>2014-02-23T09:15:58Z</time>
      </trkpt>
      <trkpt lat="45.7799" lon="4.85876">
        <ele>104.44</ele>
        <time>2014-02-23T09:16:09Z</time>
      </trkpt>
      <trkpt lat="45.77996" lon="4.85875">
        <ele>104.44</ele>
        <time>2014-02-23T09:16:12Z</time>
      </trkpt>
      <trkpt lat="45.78019" lon="4.85869">
        <ele>105.4</ele>
        <time>2014-02-23T09:16:22Z</time>
      </trkpt>
      <trkpt lat="45.78026" lon="4.85868">
        <ele>105.4</ele>
        <time>2014-02-23T09:16:24Z</time>
      </trkpt>
      <trkpt lat="45.78059" lon="4.85869">
        <ele>106.36</ele>
        <time>2014-02-23T09:16:35Z</time>
      </trkpt>
      <trkpt lat="45.78085" lon="4.85871">
        <ele>106.84</ele>
        <time>2014-02-23T09:16:45Z</time>
      </trkpt>
      <trkpt lat="45.78116" lon="4.85868">
        <ele>107.32</ele>
        <time>2014-02-23T09:16:56Z</time>
      </trkpt>
      <trkpt lat="45.78148" lon="4.85863">
        <ele>108.29</ele>
        <time>2014-02-23T09:17:08Z</time>
      </trkpt>
      <trkpt lat="45.78177" lon="4.85859">
        <ele>108.77</ele>
        <time>2014-02-23T09:17:18Z</time>
      </trkpt>
      <trkpt lat="45.78194" lon="4.85853">
        <ele>108.77</ele>
        <time>2014-02-23T09:17:26Z</time>
      </trkpt>
      <trkpt lat="45.78221" lon="4.85876">
        <ele>110.21</ele>
        <time>2014-02-23T09:17:37Z</time>
      </trkpt>
      <trkpt lat="45.78249" lon="4.85885">
        <ele>110.69</ele>
        <time>2014-02-23T09:17:47Z</time>
      </trkpt>
      <trkpt lat="45.78293" lon="4.85876">
        <ele>111.17</ele>
        <time>2014-02-23T09:17:59Z</time>
      </trkpt>
      <trkpt lat="45.78295" lon="4.85877">
        <ele>111.17</ele>
        <time>2014-02-23T09:18:00Z</time>
      </trkpt>
      <trkpt lat="45.78323" lon="4.85872">
        <ele>111.17</ele>
        <time>2014-02-23T09:18:11Z</time>
      </trkpt>
      <trkpt lat="45.7836" lon="4.85875">
        <ele>111.17</ele>
        <time>2014-02-23T09:18:22Z</time>
      </trkpt>
      <trkpt lat="45.7838" lon="4.85887">
        <ele>113.09</ele>
        <time>2014-02-23T09:18:33Z</time>
      </trkpt>
      <trkpt lat="45.78417" lon="4.85897">
        <ele>114.53</ele>
        <time>2014-02-23T09:18:47Z</time>
      </trkpt>
      <trkpt lat="45.78452" lon="4.85905">
        <ele>115.98</ele>
        <time>2014-02-23T09:18:59Z</time>
      </trkpt>
      <trkpt lat="45.78461" lon="4.85881">
        <ele>116.94</ele>
        <time>2014-02-23T09:19:05Z</time>
      </trkpt>
      <trkpt lat="45.78468" lon="4.85848">
        <ele>116.94</ele>
        <time>2014-02-23T09:19:15Z</time>
      </trkpt>
      <trkpt lat="45.78475" lon="4.85796">
        <ele>116.94</ele>
        <time>2014-02-23T09:19:29Z</time>
      </trkpt>
      <trkpt lat="45.78471" lon="4.85742">
        <ele>115.98</ele>
        <time>2014-02-23T09:19:43Z</time>
      </trkpt>
      <trkpt lat="45.78447" lon="4.85688">
        <ele>115.01</ele>
        <time>2014-02-23T09:19:55Z</time>
      </trkpt>
      <trkpt lat="45.7843" lon="4.85645">
        <ele>115.5</ele>
        <time>2014-02-23T09:20:06Z</time>
      </trkpt>
      <trkpt lat="45.78443" lon="4.85623">
        <ele>116.94</ele>
        <time>2014-02-23T09:20:14Z</time>
      </trkpt>
      <trkpt lat="45.78445" lon="4.8562">
        <ele>117.42</ele>
        <time>2014-02-23T09:20:15Z</time>
      </trkpt>
      <trkpt lat="45.78458" lon="4.85582">
        <ele>117.42</ele>
        <time>2014-02-23T09:20:27Z</time>
      </trkpt>
      <trkpt lat="45.78463" lon="4.85572">
        <ele>117.42</ele>
        <time>2014-02-23T09:20:30Z</time>
      </trkpt>
      <trkpt lat="45.78461" lon="4.85537">
        <ele>118.86</ele>
        <time>2014-02-23T09:20:39Z</time>
      </trkpt>
      <trkpt lat="45.78451" lon="4.85481">
        <ele>119.34</ele>
        <time>2014-02-23T09:20:53Z</time>
      </trkpt>
      <trkpt lat="45.78441" lon="4.85429">
        <ele>120.3</ele>
        <time>2014-02-23T09:21:07Z</time>
      </trkpt>
      <trkpt lat="45.7844" lon="4.85397">
        <ele>120.78</ele>
        <time>2014-02-23T09:21:16Z</time>
      </trkpt>
      <trkpt lat="45.78414" lon="4.85341">
        <ele>122.22</ele>
        <time>2014-02-23T09:21:31Z</time>
      </trkpt>
      <trkpt lat="45.78391" lon="4.85291">
        <ele>123.67</ele>
        <time>2014-02-23T09:21:46Z</time>
      </trkpt>
      <trkpt lat="45.78384" lon="4.85267">
        <ele>123.67</ele>
        <time>2014-02-23T09:21:54Z</time>
      </trkpt>
      <trkpt lat="45.78368" lon="4.85237">
        <ele>124.63</ele>
        <time>2014-02-23T09:22:03Z</time>
      </trkpt>
      <trkpt lat="45.78354" lon="4.85207">
        <ele>125.11</ele>
        <time>2014-02-23T09:22:14Z</time>
      </trkpt>
      <trkpt lat="45.78344" lon="4.85187">
        <ele>125.11</ele>
        <time>2014-02-23T09:22:26Z</time>
      </trkpt>
      <trkpt lat="45.78333" lon="4.85157">
        <ele>126.55</ele>
        <time>2014-02-23T09:22:41Z</time>
      </trkpt>
      <trkpt lat="45.78314" lon="4.85122">
        <ele>127.03</ele>
        <time>2014-02-23T09:22:54Z</time>
      </trkpt>
      <trkpt lat="45.78288" lon="4.85078">
        <ele>128.47</ele>
        <time>2014-02-23T09:23:05Z</time>
      </trkpt>
      <trkpt lat="45.78273" lon="4.85038">
        <ele>128.95</ele>
        <time>2014-02-23T09:23:18Z</time>
      </trkpt>
      <trkpt lat="45.78252" lon="4.85013">
        <ele>130.88</ele>
        <time>2014-02-23T09:23:31Z</time>
      </trkpt>
      <trkpt lat="45.78227" lon="4.84999">
        <ele>131.36</ele>
        <time>2014-02-23T09:23:46Z</time>
      </trkpt>
      <trkpt lat="45.78219" lon="4.84976">
        <ele>131.36</ele>
        <time>2014-02-23T09:23:56Z</time>
      </trkpt>
      <trkpt lat="45.78211" lon="4.84947">
        <ele>133.76</ele>
        <time>2014-02-23T09:24:13Z</time>
      </trkpt>
      <trkpt lat="45.78206" lon="4.84941">
        <ele>133.28</ele>
        <time>2014-02-23T09:24:18Z</time>
      </trkpt>
      <trkpt lat="45.78183" lon="4.84915">
        <ele>131.84</ele>
        <time>2014-02-23T09:24:32Z</time>
      </trkpt>
      <trkpt lat="45.78146" lon="4.84874">
        <ele>131.84</ele>
        <time>2014-02-23T09:24:45Z</time>
      </trkpt>
      <trkpt lat="45.78121" lon="4.84853">
        <ele>132.8</ele>
        <time>2014-02-23T09:24:57Z</time>
      </trkpt>
      <trkpt lat="45.78095" lon="4.84821">
        <ele>132.8</ele>
        <time>2014-02-23T09:25:12Z</time>
      </trkpt>
      <trkpt lat="45.78062" lon="4.84792">
        <ele>133.28</ele>
        <time>2014-02-23T09:25:26Z</time>
      </trkpt>
      <trkpt lat="45.78028" lon="4.84763">
        <ele>133.28</ele>
        <time>2014-02-23T09:25:40Z</time>
      </trkpt>
      <trkpt lat="45.77991" lon="4.84736">
        <ele>135.2</ele>
        <time>2014-02-23T09:25:54Z</time>
      </trkpt>
      <trkpt lat="45.77966" lon="4.84719">
        <ele>135.2</ele>
        <time>2014-02-23T09:26:08Z</time>
      </trkpt>
      <trkpt lat="45.77941" lon="4.84694">
        <ele>136.16</ele>
        <time>2014-02-23T09:26:20Z</time>
      </trkpt>
      <trkpt lat="45.7788" lon="4.84648">
        <ele>138.09</ele>
        <time>2014-02-23T09:26:34Z</time>
      </trkpt>
      <trkpt lat="45.7781" lon="4.8462">
        <ele>136.64</ele>
        <time>2014-02-23T09:26:47Z</time>
      </trkpt>
      <trkpt lat="45.77819" lon="4.84578">
        <ele>139.05</ele>
        <time>2014-02-23T09:26:57Z</time>
      </trkpt>
      <trkpt lat="45.77822" lon="4.84572">
        <ele>139.05</ele>
        <time>2014-02-23T09:26:59Z</time>
      </trkpt>
      <trkpt lat="45.77842" lon="4.84546">
        <ele>140.01</ele>
        <time>2014-02-23T09:27:10Z</time>
      </trkpt>
      <trkpt lat="45.77809" lon="4.84463">
        <ele>141.93</ele>
        <time>2014-02-23T09:27:20Z</time>
      </trkpt>
      <trkpt lat="45.7782" lon="4.84449">
        <ele>141.93</ele>
        <time>2014-02-23T09:27:29Z</time>
      </trkpt>
      <trkpt lat="45.77822" lon="4.84443">
        <ele>141.93</ele>
        <time>2014-02-23T09:27:31Z</time>
      </trkpt>
      <trkpt lat="45.77829" lon="4.8441">
        <ele>143.85</ele>
        <time>2014-02-23T09:27:41Z</time>
      </trkpt>
      <trkpt lat="45.77837" lon="4.84373">
        <ele>144.34</ele>
        <time>2014-02-23T09:27:53Z</time>
      </trkpt>
      <trkpt lat="45.77846" lon="4.84343">
        <ele>147.22</ele>
        <time>2014-02-23T09:28:02Z</time>
      </trkpt>
      <trkpt lat="45.77857" lon="4.84322">
        <ele>147.22</ele>
        <time>2014-02-23T09:28:09Z</time>
      </trkpt>
      <trkpt lat="45.77876" lon="4.8429">
        <ele>147.7</ele>
        <time>2014-02-23T09:28:20Z</time>
      </trkpt>
      <trkpt lat="45.77886" lon="4.84267">
        <ele>147.7</ele>
        <time>2014-02-23T09:28:27Z</time>
      </trkpt>
      <trkpt lat="45.77893" lon="4.84243">
        <ele>147.22</ele>
        <time>2014-02-23T09:28:34Z</time>
      </trkpt>
      <trkpt lat="45.77898" lon="4.84213">
        <ele>147.22</ele>
        <time>2014-02-23T09:28:42Z</time>
      </trkpt>
      <trkpt lat="45.77909" lon="4.84177">
        <ele>147.22</ele>
        <time>2014-02-23T09:28:53Z</time>
      </trkpt>
      <trkpt lat="45.77918" lon="4.84161">
        <ele>147.22</ele>
        <time>2014-02-23T09:28:59Z</time>
      </trkpt>
      <trkpt lat="45.77934" lon="4.84136">
        <ele>146.74</ele>
        <time>2014-02-23T09:29:09Z</time>
      </trkpt>
      <trkpt lat="45.77937" lon="4.84136">
        <ele>146.74</ele>
        <time>2014-02-23T09:29:10Z</time>
      </trkpt>
      <trkpt lat="45.77966" lon="4.84146">
        <ele>145.3</ele>
        <time>2014-02-23T09:29:18Z</time>
      </trkpt>
      <trkpt lat="45.77974" lon="4.84149">
        <ele>145.3</ele>
        <time>2014-02-23T09:29:21Z</time>
      </trkpt>
      <trkpt lat="45.77986" lon="4.84149">
        <ele>145.3</ele>
        <time>2014-02-23T09:29:25Z</time>
      </trkpt>
      <trkpt lat="45.78025" lon="4.84167">
        <ele>145.78</ele>
        <time>2014-02-23T09:29:40Z</time>
      </trkpt>
      <trkpt lat="45.78046" lon="4.84176">
        <ele>145.78</ele>
        <time>2014-02-23T09:29:47Z</time>
      </trkpt>
      <trkpt lat="45.78072" lon="4.84188">
        <ele>146.26</ele>
        <time>2014-02-23T09:29:59Z</time>
      </trkpt>
      <trkpt lat="45.781" lon="4.8421">
        <ele>145.78</ele>
        <time>2014-02-23T09:30:12Z</time>
      </trkpt>
      <trkpt lat="45.78128" lon="4.84227">
        <ele>146.74</ele>
        <time>2014-02-23T09:30:23Z</time>
      </trkpt>
      <trkpt lat="45.78162" lon="4.8424">
        <ele>145.78</ele>
        <time>2014-02-23T09:30:35Z</time>
      </trkpt>
      <trkpt lat="45.78185" lon="4.8426">
        <ele>146.74</ele>
        <time>2014-02-23T09:30:46Z</time>
      </trkpt>
      <trkpt lat="45.78203" lon="4.84271">
        <ele>146.74</ele>
        <time>2014-02-23T09:30:54Z</time>
      </trkpt>
      <trkpt lat="45.78209" lon="4.84275">
        <ele>146.74</ele>
        <time>2014-02-23T09:30:56Z</time>
      </trkpt>
      <trkpt lat="45.78218" lon="4.84279">
        <ele>146.74</ele>
        <time>2014-02-23T09:30:59Z</time>
      </trkpt>
      <trkpt lat="45.78227" lon="4.84291">
        <ele>146.26</ele>
        <time>2014-02-23T09:31:03Z</time>
      </trkpt>
      <trkpt lat="45.78233" lon="4.84293">
        <ele>145.78</ele>
        <time>2014-02-23T09:31:05Z</time>
      </trkpt>
      <trkpt lat="45.78237" lon="4.84302">
        <ele>145.78</ele>
        <time>2014-02-23T09:31:07Z</time>
      </trkpt>
      <trkpt lat="45.78256" lon="4.84323">
        <ele>146.26</ele>
        <time>2014-02-23T09:31:17Z</time>
      </trkpt>
      <trkpt lat="45.78266" lon="4.84334">
        <ele>146.26</ele>
        <time>2014-02-23T09:31:21Z</time>
      </trkpt>
      <trkpt lat="45.7827" lon="4.84342">
        <ele>146.26</ele>
        <time>2014-02-23T09:31:23Z</time>
      </trkpt>
      <trkpt lat="45.78277" lon="4.84347">
        <ele>146.74</ele>
        <time>2014-02-23T09:31:26Z</time>
      </trkpt>
      <trkpt lat="45.78291" lon="4.8437">
        <ele>146.26</ele>
        <time>2014-02-23T09:31:34Z</time>
      </trkpt>
      <trkpt lat="45.78306" lon="4.84384">
        <ele>146.74</ele>
        <time>2014-02-23T09:31:40Z</time>
      </trkpt>
      <trkpt lat="45.78315" lon="4.84393">
        <ele>146.26</ele>
        <time>2014-02-23T09:31:43Z</time>
      </trkpt>
      <trkpt lat="45.78322" lon="4.84402">
        <ele>146.26</ele>
        <time>2014-02-23T09:31:47Z</time>
      </trkpt>
      <trkpt lat="45.78356" lon="4.84452">
        <ele>145.78</ele>
        <time>2014-02-23T09:32:03Z</time>
      </trkpt>
      <trkpt lat="45.78374" lon="4.84487">
        <ele>146.74</ele>
        <time>2014-02-23T09:32:12Z</time>
      </trkpt>
      <trkpt lat="45.78385" lon="4.84504">
        <ele>146.26</ele>
        <time>2014-02-23T09:32:18Z</time>
      </trkpt>
      <trkpt lat="45.78406" lon="4.84523">
        <ele>145.78</ele>
        <time>2014-02-23T09:32:26Z</time>
      </trkpt>
      <trkpt lat="45.78423" lon="4.8456">
        <ele>146.26</ele>
        <time>2014-02-23T09:32:35Z</time>
      </trkpt>
      <trkpt lat="45.78434" lon="4.84584">
        <ele>145.3</ele>
        <time>2014-02-23T09:32:42Z</time>
      </trkpt>
      <trkpt lat="45.78455" lon="4.84606">
        <ele>146.26</ele>
        <time>2014-02-23T09:32:51Z</time>
      </trkpt>
      <trkpt lat="45.78475" lon="4.8463">
        <ele>146.26</ele>
        <time>2014-02-23T09:33:01Z</time>
      </trkpt>
      <trkpt lat="45.78486" lon="4.84637">
        <ele>147.22</ele>
        <time>2014-02-23T09:33:05Z</time>
      </trkpt>
      <trkpt lat="45.78503" lon="4.84649">
        <ele>146.74</ele>
        <time>2014-02-23T09:33:13Z</time>
      </trkpt>
      <trkpt lat="45.78519" lon="4.84662">
        <ele>147.22</ele>
        <time>2014-02-23T09:33:21Z</time>
      </trkpt>
      <trkpt lat="45.78527" lon="4.84668">
        <ele>147.22</ele>
        <time>2014-02-23T09:33:27Z</time>
      </trkpt>
      <trkpt lat="45.78542" lon="4.84666">
        <ele>147.7</ele>
        <time>2014-02-23T09:33:39Z</time>
      </trkpt>
      <trkpt lat="45.78545" lon="4.84658">
        <ele>148.66</ele>
        <time>2014-02-23T09:33:44Z</time>
      </trkpt>
      <trkpt lat="45.78546" lon="4.84643">
        <ele>149.62</ele>
        <time>2014-02-23T09:33:55Z</time>
      </trkpt>
      <trkpt lat="45.78546" lon="4.84615">
        <ele>149.62</ele>
        <time>2014-02-23T09:34:12Z</time>
      </trkpt>
      <trkpt lat="45.78547" lon="4.84597">
        <ele>148.66</ele>
        <time>2014-02-23T09:34:31Z</time>
      </trkpt>
      <trkpt lat="45.78549" lon="4.84588">
        <ele>148.66</ele>
        <time>2014-02-23T09:34:46Z</time>
      </trkpt>
      <trkpt lat="45.78549" lon="4.84574">
        <ele>148.66</ele>
        <time>2014-02-23T09:35:03Z</time>
      </trkpt>
      <trkpt lat="45.78553" lon="4.84574">
        <ele>148.18</ele>
        <time>2014-02-23T09:35:19Z</time>
      </trkpt>
      <trkpt lat="45.78556" lon="4.84564">
        <ele>148.18</ele>
        <time>2014-02-23T09:35:30Z</time>
      </trkpt>
      <trkpt lat="45.78567" lon="4.84529">
        <ele>150.58</ele>
        <time>2014-02-23T09:35:40Z</time>
      </trkpt>
      <trkpt lat="45.78594" lon="4.84465">
        <ele>153.95</ele>
        <time>2014-02-23T09:35:54Z</time>
      </trkpt>
      <trkpt lat="45.78621" lon="4.84433">
        <ele>157.31</ele>
        <time>2014-02-23T09:36:06Z</time>
      </trkpt>
      <trkpt lat="45.78626" lon="4.84439">
        <ele>158.27</ele>
        <time>2014-02-23T09:36:08Z</time>
      </trkpt>
      <trkpt lat="45.78641" lon="4.84431">
        <ele>161.64</ele>
        <time>2014-02-23T09:36:17Z</time>
      </trkpt>
      <trkpt lat="45.78644" lon="4.84423">
        <ele>163.56</ele>
        <time>2014-02-23T09:36:23Z</time>
      </trkpt>
      <trkpt lat="45.78653" lon="4.84403">
        <ele>166.45</ele>
        <time>2014-02-23T09:36:36Z</time>
      </trkpt>
      <trkpt lat="45.78656" lon="4.84386">
        <ele>169.33</ele>
        <time>2014-02-23T09:36:44Z</time>
      </trkpt>
      <trkpt lat="45.78685" lon="4.84372">
        <ele>172.21</ele>
        <time>2014-02-23T09:36:56Z</time>
      </trkpt>
      <trkpt lat="45.78733" lon="4.84404">
        <ele>174.14</ele>
        <time>2014-02-23T09:37:04Z</time>
      </trkpt>
      <trkpt lat="45.78764" lon="4.84417">
        <ele>177.5</ele>
        <time>2014-02-23T09:37:16Z</time>
      </trkpt>
      <trkpt lat="45.78777" lon="4.84427">
        <ele>177.5</ele>
        <time>2014-02-23T09:37:24Z</time>
      </trkpt>
      <trkpt lat="45.78798" lon="4.84445">
        <ele>180.87</ele>
        <time>2014-02-23T09:37:37Z</time>
      </trkpt>
      <trkpt lat="45.78817" lon="4.84435">
        <ele>183.27</ele>
        <time>2014-02-23T09:37:49Z</time>
      </trkpt>
      <trkpt lat="45.78818" lon="4.84435">
        <ele>183.27</ele>
        <time>2014-02-23T09:37:50Z</time>
      </trkpt>
      <trkpt lat="45.78802" lon="4.84432">
        <ele>183.27</ele>
        <time>2014-02-23T09:38:02Z</time>
      </trkpt>
      <trkpt lat="45.78766" lon="4.84438">
        <ele>183.75</ele>
        <time>2014-02-23T09:38:15Z</time>
      </trkpt>
      <trkpt lat="45.78746" lon="4.84431">
        <ele>186.15</ele>
        <time>2014-02-23T09:38:27Z</time>
      </trkpt>
      <trkpt lat="45.78735" lon="4.84411">
        <ele>188.56</ele>
        <time>2014-02-23T09:38:39Z</time>
      </trkpt>
      <trkpt lat="45.78735" lon="4.84411">
        <ele>190</ele>
        <time>2014-02-23T09:38:41Z</time>
      </trkpt>
      <trkpt lat="45.78744" lon="4.84403">
        <ele>192.4</ele>
        <time>2014-02-23T09:38:52Z</time>
      </trkpt>
      <trkpt lat="45.78751" lon="4.8439">
        <ele>194.32</ele>
        <time>2014-02-23T09:38:56Z</time>
      </trkpt>
      <trkpt lat="45.78758" lon="4.84386">
        <ele>195.77</ele>
        <time>2014-02-23T09:39:00Z</time>
      </trkpt>
      <trkpt lat="45.78783" lon="4.84374">
        <ele>199.13</ele>
        <time>2014-02-23T09:39:14Z</time>
      </trkpt>
      <trkpt lat="45.78783" lon="4.84365">
        <ele>199.13</ele>
        <time>2014-02-23T09:39:15Z</time>
      </trkpt>
      <trkpt lat="45.78801" lon="4.84315">
        <ele>199.61</ele>
        <time>2014-02-23T09:39:33Z</time>
      </trkpt>
      <trkpt lat="45.78802" lon="4.8431">
        <ele>199.61</ele>
        <time>2014-02-23T09:39:38Z</time>
      </trkpt>
      <trkpt lat="45.78816" lon="4.84294">
        <ele>203.46</ele>
        <time>2014-02-23T09:39:49Z</time>
      </trkpt>
      <trkpt lat="45.78827" lon="4.84277">
        <ele>206.82</ele>
        <time>2014-02-23T09:40:01Z</time>
      </trkpt>
      <trkpt lat="45.78829" lon="4.84278">
        <ele>208.74</ele>
        <time>2014-02-23T09:40:08Z</time>
      </trkpt>
      <trkpt lat="45.78813" lon="4.84336">
        <ele>208.74</ele>
        <time>2014-02-23T09:40:17Z</time>
      </trkpt>
      <trkpt lat="45.78806" lon="4.84348">
        <ele>207.3</ele>
        <time>2014-02-23T09:40:29Z</time>
      </trkpt>
      <trkpt lat="45.78804" lon="4.8435">
        <ele>207.3</ele>
        <time>2014-02-23T09:40:30Z</time>
      </trkpt>
      <trkpt lat="45.78792" lon="4.84363">
        <ele>205.38</ele>
        <time>2014-02-23T09:40:35Z</time>
      </trkpt>
      <trkpt lat="45.78791" lon="4.84364">
        <ele>204.9</ele>
        <time>2014-02-23T09:40:36Z</time>
      </trkpt>
      <trkpt lat="45.78792" lon="4.84327">
        <ele>206.34</ele>
        <time>2014-02-23T09:40:49Z</time>
      </trkpt>
      <trkpt lat="45.78786" lon="4.84308">
        <ele>208.74</ele>
        <time>2014-02-23T09:41:02Z</time>
      </trkpt>
      <trkpt lat="45.78777" lon="4.84281">
        <ele>209.7</ele>
        <time>2014-02-23T09:41:16Z</time>
      </trkpt>
      <trkpt lat="45.78766" lon="4.84267">
        <ele>210.19</ele>
        <time>2014-02-23T09:41:25Z</time>
      </trkpt>
      <trkpt lat="45.78759" lon="4.84246">
        <ele>210.67</ele>
        <time>2014-02-23T09:41:35Z</time>
      </trkpt>
      <trkpt lat="45.78756" lon="4.84233">
        <ele>209.7</ele>
        <time>2014-02-23T09:41:42Z</time>
      </trkpt>
      <trkpt lat="45.78755" lon="4.84218">
        <ele>209.7</ele>
        <time>2014-02-23T09:41:49Z</time>
      </trkpt>
      <trkpt lat="45.78716" lon="4.84165">
        <ele>207.78</ele>
        <time>2014-02-23T09:41:59Z</time>
      </trkpt>
      <trkpt lat="45.78702" lon="4.84141">
        <ele>206.82</ele>
        <time>2014-02-23T09:42:06Z</time>
      </trkpt>
      <trkpt lat="45.7869" lon="4.84114">
        <ele>205.38</ele>
        <time>2014-02-23T09:42:15Z</time>
      </trkpt>
      <trkpt lat="45.78675" lon="4.84081">
        <ele>206.34</ele>
        <time>2014-02-23T09:42:24Z</time>
      </trkpt>
      <trkpt lat="45.7866" lon="4.84055">
        <ele>203.94</ele>
        <time>2014-02-23T09:42:33Z</time>
      </trkpt>
      <trkpt lat="45.78641" lon="4.84011">
        <ele>204.9</ele>
        <time>2014-02-23T09:42:47Z</time>
      </trkpt>
      <trkpt lat="45.78626" lon="4.83989">
        <ele>204.42</ele>
        <time>2014-02-23T09:42:54Z</time>
      </trkpt>
      <trkpt lat="45.78609" lon="4.83958">
        <ele>203.94</ele>
        <time>2014-02-23T09:43:04Z</time>
      </trkpt>
      <trkpt lat="45.78593" lon="4.8393">
        <ele>204.9</ele>
        <time>2014-02-23T09:43:13Z</time>
      </trkpt>
      <trkpt lat="45.78583" lon="4.83907">
        <ele>204.42</ele>
        <time>2014-02-23T09:43:21Z</time>
      </trkpt>
      <trkpt lat="45.78572" lon="4.83879">
        <ele>205.38</ele>
        <time>2014-02-23T09:43:31Z</time>
      </trkpt>
      <trkpt lat="45.78557" lon="4.83851">
        <ele>205.38</ele>
        <time>2014-02-23T09:43:40Z</time>
      </trkpt>
      <trkpt lat="45.78543" lon="4.8383">
        <ele>205.86</ele>
        <time>2014-02-23T09:43:47Z</time>
      </trkpt>
      <trkpt lat="45.7853" lon="4.83803">
        <ele>206.34</ele>
        <time>2014-02-23T09:43:56Z</time>
      </trkpt>
      <trkpt lat="45.78515" lon="4.83773">
        <ele>207.3</ele>
        <time>2014-02-23T09:44:07Z</time>
      </trkpt>
      <trkpt lat="45.78503" lon="4.83757">
        <ele>207.78</ele>
        <time>2014-02-23T09:44:13Z</time>
      </trkpt>
      <trkpt lat="45.78489" lon="4.83768">
        <ele>207.3</ele>
        <time>2014-02-23T09:44:19Z</time>
      </trkpt>
      <trkpt lat="45.78481" lon="4.83816">
        <ele>205.38</ele>
        <time>2014-02-23T09:44:31Z</time>
      </trkpt>
      <trkpt lat="45.78466" lon="4.83871">
        <ele>203.94</ele>
        <time>2014-02-23T09:44:44Z</time>
      </trkpt>
      <trkpt lat="45.78457" lon="4.83917">
        <ele>202.98</ele>
        <time>2014-02-23T09:44:57Z</time>
      </trkpt>
      <trkpt lat="45.78443" lon="4.83956">
        <ele>202.49</ele>
        <time>2014-02-23T09:45:09Z</time>
      </trkpt>
      <trkpt lat="45.78442" lon="4.83959">
        <ele>202.98</ele>
        <time>2014-02-23T09:45:10Z</time>
      </trkpt>
      <trkpt lat="45.78425" lon="4.84013">
        <ele>202.01</ele>
        <time>2014-02-23T09:45:25Z</time>
      </trkpt>
      <trkpt lat="45.78413" lon="4.84054">
        <ele>202.01</ele>
        <time>2014-02-23T09:45:37Z</time>
      </trkpt>
      <trkpt lat="45.7839" lon="4.84072">
        <ele>201.53</ele>
        <time>2014-02-23T09:45:52Z</time>
      </trkpt>
      <trkpt lat="45.78375" lon="4.84059">
        <ele>202.01</ele>
        <time>2014-02-23T09:45:59Z</time>
      </trkpt>
      <trkpt lat="45.78342" lon="4.84057">
        <ele>202.49</ele>
        <time>2014-02-23T09:46:14Z</time>
      </trkpt>
      <trkpt lat="45.78301" lon="4.84059">
        <ele>202.01</ele>
        <time>2014-02-23T09:46:28Z</time>
      </trkpt>
      <trkpt lat="45.7827" lon="4.84074">
        <ele>202.01</ele>
        <time>2014-02-23T09:46:41Z</time>
      </trkpt>
      <trkpt lat="45.78239" lon="4.8408">
        <ele>200.09</ele>
        <time>2014-02-23T09:46:53Z</time>
      </trkpt>
      <trkpt lat="45.78235" lon="4.8408">
        <ele>200.09</ele>
        <time>2014-02-23T09:46:54Z</time>
      </trkpt>
      <trkpt lat="45.78229" lon="4.84071">
        <ele>199.13</ele>
        <time>2014-02-23T09:46:58Z</time>
      </trkpt>
      <trkpt lat="45.78221" lon="4.84038">
        <ele>195.77</ele>
        <time>2014-02-23T09:47:07Z</time>
      </trkpt>
      <trkpt lat="45.78219" lon="4.8404">
        <ele>194.8</ele>
        <time>2014-02-23T09:47:09Z</time>
      </trkpt>
      <trkpt lat="45.78206" lon="4.84042">
        <ele>191.92</ele>
        <time>2014-02-23T09:47:13Z</time>
      </trkpt>
      <trkpt lat="45.7819" lon="4.84042">
        <ele>189.04</ele>
        <time>2014-02-23T09:47:17Z</time>
      </trkpt>
      <trkpt lat="45.78181" lon="4.8404">
        <ele>186.15</ele>
        <time>2014-02-23T09:47:21Z</time>
      </trkpt>
      <trkpt lat="45.78168" lon="4.84043">
        <ele>183.27</ele>
        <time>2014-02-23T09:47:25Z</time>
      </trkpt>
      <trkpt lat="45.78153" lon="4.84061">
        <ele>184.23</ele>
        <time>2014-02-23T09:47:37Z</time>
      </trkpt>
      <trkpt lat="45.7814" lon="4.8407">
        <ele>187.11</ele>
        <time>2014-02-23T09:47:44Z</time>
      </trkpt>
      <trkpt lat="45.78109" lon="4.84085">
        <ele>189.52</ele>
        <time>2014-02-23T09:47:57Z</time>
      </trkpt>
      <trkpt lat="45.78123" lon="4.84093">
        <ele>188.56</ele>
        <time>2014-02-23T09:48:00Z</time>
      </trkpt>
      <trkpt lat="45.78115" lon="4.84103">
        <ele>186.63</ele>
        <time>2014-02-23T09:48:05Z</time>
      </trkpt>
      <trkpt lat="45.78096" lon="4.8411">
        <ele>183.75</ele>
        <time>2014-02-23T09:48:13Z</time>
      </trkpt>
      <trkpt lat="45.78089" lon="4.84112">
        <ele>182.31</ele>
        <time>2014-02-23T09:48:16Z</time>
      </trkpt>
      <trkpt lat="45.78059" lon="4.84104">
        <ele>179.42</ele>
        <time>2014-02-23T09:48:28Z</time>
      </trkpt>
      <trkpt lat="45.78059" lon="4.84094">
        <ele>178.46</ele>
        <time>2014-02-23T09:48:31Z</time>
      </trkpt>
      <trkpt lat="45.78086" lon="4.84053">
        <ele>175.58</ele>
        <time>2014-02-23T09:48:46Z</time>
      </trkpt>
      <trkpt lat="45.78106" lon="4.84019">
        <ele>173.66</ele>
        <time>2014-02-23T09:49:00Z</time>
      </trkpt>
      <trkpt lat="45.78155" lon="4.83968">
        <ele>172.21</ele>
        <time>2014-02-23T09:49:17Z</time>
      </trkpt>
      <trkpt lat="45.78163" lon="4.83934">
        <ele>171.73</ele>
        <time>2014-02-23T09:49:29Z</time>
      </trkpt>
      <trkpt lat="45.78162" lon="4.83933">
        <ele>171.73</ele>
        <time>2014-02-23T09:49:30Z</time>
      </trkpt>
      <trkpt lat="45.78144" lon="4.83949">
        <ele>171.25</ele>
        <time>2014-02-23T09:49:42Z</time>
      </trkpt>
      <trkpt lat="45.7811" lon="4.83977">
        <ele>168.37</ele>
        <time>2014-02-23T09:49:55Z</time>
      </trkpt>
      <trkpt lat="45.78084" lon="4.83999">
        <ele>165.48</ele>
        <time>2014-02-23T09:50:05Z</time>
      </trkpt>
      <trkpt lat="45.78074" lon="4.84013">
        <ele>164.04</ele>
        <time>2014-02-23T09:50:12Z</time>
      </trkpt>
      <trkpt lat="45.78082" lon="4.84008">
        <ele>163.08</ele>
        <time>2014-02-23T09:50:16Z</time>
      </trkpt>
      <trkpt lat="45.7808" lon="4.84006">
        <ele>159.72</ele>
        <time>2014-02-23T09:50:29Z</time>
      </trkpt>
      <trkpt lat="45.78081" lon="4.84005">
        <ele>159.72</ele>
        <time>2014-02-23T09:50:30Z</time>
      </trkpt>
      <trkpt lat="45.78061" lon="4.84024">
        <ele>156.35</ele>
        <time>2014-02-23T09:50:40Z</time>
      </trkpt>
      <trkpt lat="45.78037" lon="4.84055">
        <ele>152.99</ele>
        <time>2014-02-23T09:50:51Z</time>
      </trkpt>
      <trkpt lat="45.7801" lon="4.84077">
        <ele>150.1</ele>
        <time>2014-02-23T09:51:02Z</time>
      </trkpt>
      <trkpt lat="45.77986" lon="4.84095">
        <ele>146.74</ele>
        <time>2014-02-23T09:51:11Z</time>
      </trkpt>
      <trkpt lat="45.77956" lon="4.84116">
        <ele>143.85</ele>
        <time>2014-02-23T09:51:24Z</time>
      </trkpt>
      <trkpt lat="45.77951" lon="4.84115">
        <ele>143.85</ele>
        <time>2014-02-23T09:51:43Z</time>
      </trkpt>
      <trkpt lat="45.77951" lon="4.84115">
        <ele>144.82</ele>
        <time>2014-02-23T09:52:02Z</time>
      </trkpt>
      <trkpt lat="45.77948" lon="4.84116">
        <ele>144.82</ele>
        <time>2014-02-23T09:52:05Z</time>
      </trkpt>
      <trkpt lat="45.77918" lon="4.8409">
        <ele>144.82</ele>
        <time>2014-02-23T09:52:20Z</time>
      </trkpt>
      <trkpt lat="45.77901" lon="4.84072">
        <ele>145.3</ele>
        <time>2014-02-23T09:52:30Z</time>
      </trkpt>
      <trkpt lat="45.77885" lon="4.84062">
        <ele>148.18</ele>
        <time>2014-02-23T09:52:43Z</time>
      </trkpt>
      <trkpt lat="45.77884" lon="4.84061">
        <ele>148.66</ele>
        <time>2014-02-23T09:52:45Z</time>
      </trkpt>
      <trkpt lat="45.77882" lon="4.84058">
        <ele>150.58</ele>
        <time>2014-02-23T09:52:49Z</time>
      </trkpt>
      <trkpt lat="45.7788" lon="4.84055">
        <ele>152.99</ele>
        <time>2014-02-23T09:52:53Z</time>
      </trkpt>
      <trkpt lat="45.77877" lon="4.8405">
        <ele>154.91</ele>
        <time>2014-02-23T09:52:57Z</time>
      </trkpt>
      <trkpt lat="45.77872" lon="4.84038">
        <ele>158.27</ele>
        <time>2014-02-23T09:53:05Z</time>
      </trkpt>
      <trkpt lat="45.7787" lon="4.84031">
        <ele>161.64</ele>
        <time>2014-02-23T09:53:11Z</time>
      </trkpt>
      <trkpt lat="45.77865" lon="4.84019">
        <ele>164.52</ele>
        <time>2014-02-23T09:53:18Z</time>
      </trkpt>
      <trkpt lat="45.77853" lon="4.84006">
        <ele>167.41</ele>
        <time>2014-02-23T09:53:25Z</time>
      </trkpt>
      <trkpt lat="45.77852" lon="4.84003">
        <ele>168.85</ele>
        <time>2014-02-23T09:53:28Z</time>
      </trkpt>
      <trkpt lat="45.77848" lon="4.84">
        <ele>170.29</ele>
        <time>2014-02-23T09:53:31Z</time>
      </trkpt>
      <trkpt lat="45.77829" lon="4.83992">
        <ele>173.66</ele>
        <time>2014-02-23T09:53:41Z</time>
      </trkpt>
      <trkpt lat="45.7782" lon="4.83992">
        <ele>176.54</ele>
        <time>2014-02-23T09:53:49Z</time>
      </trkpt>
      <trkpt lat="45.77813" lon="4.8399">
        <ele>179.9</ele>
        <time>2014-02-23T09:53:58Z</time>
      </trkpt>
      <trkpt lat="45.7781" lon="4.83994">
        <ele>181.35</ele>
        <time>2014-02-23T09:54:03Z</time>
      </trkpt>
      <trkpt lat="45.77807" lon="4.83984">
        <ele>183.27</ele>
        <time>2014-02-23T09:54:08Z</time>
      </trkpt>
      <trkpt lat="45.77796" lon="4.83983">
        <ele>186.63</ele>
        <time>2014-02-23T09:54:20Z</time>
      </trkpt>
      <trkpt lat="45.77796" lon="4.83982">
        <ele>187.59</ele>
        <time>2014-02-23T09:54:22Z</time>
      </trkpt>
      <trkpt lat="45.77796" lon="4.8398">
        <ele>188.56</ele>
        <time>2014-02-23T09:54:25Z</time>
      </trkpt>
      <trkpt lat="45.77785" lon="4.83952">
        <ele>192.4</ele>
        <time>2014-02-23T09:54:36Z</time>
      </trkpt>
      <trkpt lat="45.77773" lon="4.83936">
        <ele>195.28</ele>
        <time>2014-02-23T09:54:44Z</time>
      </trkpt>
      <trkpt lat="45.77767" lon="4.83924">
        <ele>198.17</ele>
        <time>2014-02-23T09:54:50Z</time>
      </trkpt>
      <trkpt lat="45.77764" lon="4.83917">
        <ele>200.57</ele>
        <time>2014-02-23T09:54:54Z</time>
      </trkpt>
      <trkpt lat="45.77757" lon="4.83909">
        <ele>203.46</ele>
        <time>2014-02-23T09:54:58Z</time>
      </trkpt>
      <trkpt lat="45.77754" lon="4.83899">
        <ele>205.86</ele>
        <time>2014-02-23T09:55:02Z</time>
      </trkpt>
      <trkpt lat="45.77753" lon="4.83893">
        <ele>207.3</ele>
        <time>2014-02-23T09:55:05Z</time>
      </trkpt>
      <trkpt lat="45.77752" lon="4.83891">
        <ele>209.7</ele>
        <time>2014-02-23T09:55:11Z</time>
      </trkpt>
      <trkpt lat="45.77741" lon="4.83875">
        <ele>210.67</ele>
        <time>2014-02-23T09:55:25Z</time>
      </trkpt>
      <trkpt lat="45.77754" lon="4.83881">
        <ele>210.67</ele>
        <time>2014-02-23T09:55:30Z</time>
      </trkpt>
      <trkpt lat="45.77773" lon="4.83895">
        <ele>209.22</ele>
        <time>2014-02-23T09:55:44Z</time>
      </trkpt>
      <trkpt lat="45.7778" lon="4.83908">
        <ele>205.86</ele>
        <time>2014-02-23T09:55:53Z</time>
      </trkpt>
      <trkpt lat="45.77785" lon="4.83922">
        <ele>202.49</ele>
        <time>2014-02-23T09:56:02Z</time>
      </trkpt>
      <trkpt lat="45.77782" lon="4.83919">
        <ele>202.49</ele>
        <time>2014-02-23T09:56:11Z</time>
      </trkpt>
      <trkpt lat="45.77772" lon="4.83907">
        <ele>205.86</ele>
        <time>2014-02-23T09:56:21Z</time>
      </trkpt>
      <trkpt lat="45.77768" lon="4.83887">
        <ele>209.22</ele>
        <time>2014-02-23T09:56:32Z</time>
      </trkpt>
      <trkpt lat="45.77758" lon="4.83887">
        <ele>211.63</ele>
        <time>2014-02-23T09:56:41Z</time>
      </trkpt>
      <trkpt lat="45.77749" lon="4.83878">
        <ele>212.11</ele>
        <time>2014-02-23T09:56:47Z</time>
      </trkpt>
      <trkpt lat="45.7772" lon="4.83863">
        <ele>213.55</ele>
        <time>2014-02-23T09:57:07Z</time>
      </trkpt>
      <trkpt lat="45.77711" lon="4.83829">
        <ele>214.51</ele>
        <time>2014-02-23T09:57:19Z</time>
      </trkpt>
      <trkpt lat="45.77711" lon="4.83824">
        <ele>214.51</ele>
        <time>2014-02-23T09:57:20Z</time>
      </trkpt>
      <trkpt lat="45.77684" lon="4.83776">
        <ele>215.95</ele>
        <time>2014-02-23T09:57:36Z</time>
      </trkpt>
      <trkpt lat="45.77659" lon="4.83732">
        <ele>217.4</ele>
        <time>2014-02-23T09:57:51Z</time>
      </trkpt>
      <trkpt lat="45.77645" lon="4.83702">
        <ele>219.8</ele>
        <time>2014-02-23T09:58:03Z</time>
      </trkpt>
      <trkpt lat="45.77655" lon="4.83672">
        <ele>221.24</ele>
        <time>2014-02-23T09:58:14Z</time>
      </trkpt>
      <trkpt lat="45.77651" lon="4.83616">
        <ele>222.68</ele>
        <time>2014-02-23T09:58:29Z</time>
      </trkpt>
      <trkpt lat="45.77629" lon="4.83602">
        <ele>222.2</ele>
        <time>2014-02-23T09:58:40Z</time>
      </trkpt>
      <trkpt lat="45.77621" lon="4.83602">
        <ele>218.84</ele>
        <time>2014-02-23T09:58:48Z</time>
      </trkpt>
      <trkpt lat="45.77619" lon="4.83602">
        <ele>218.84</ele>
        <time>2014-02-23T09:58:49Z</time>
      </trkpt>
      <trkpt lat="45.77615" lon="4.836">
        <ele>217.4</ele>
        <time>2014-02-23T09:58:52Z</time>
      </trkpt>
      <trkpt lat="45.77607" lon="4.83599">
        <ele>215.47</ele>
        <time>2014-02-23T09:58:57Z</time>
      </trkpt>
      <trkpt lat="45.77593" lon="4.83615">
        <ele>212.11</ele>
        <time>2014-02-23T09:59:07Z</time>
      </trkpt>
      <trkpt lat="45.77587" lon="4.83695">
        <ele>208.74</ele>
        <time>2014-02-23T09:59:21Z</time>
      </trkpt>
      <trkpt lat="45.77593" lon="4.83737">
        <ele>205.38</ele>
        <time>2014-02-23T09:59:31Z</time>
      </trkpt>
      <trkpt lat="45.77592" lon="4.83753">
        <ele>204.9</ele>
        <time>2014-02-23T09:59:35Z</time>
      </trkpt>
      <trkpt lat="45.77582" lon="4.83784">
        <ele>203.46</ele>
        <time>2014-02-23T09:59:47Z</time>
      </trkpt>
      <trkpt lat="45.77585" lon="4.83805">
        <ele>202.49</ele>
        <time>2014-02-23T09:59:55Z</time>
      </trkpt>
      <trkpt lat="45.7758" lon="4.83823">
        <ele>198.65</ele>
        <time>2014-02-23T10:00:06Z</time>
      </trkpt>
      <trkpt lat="45.77573" lon="4.83831">
        <ele>195.77</ele>
        <time>2014-02-23T10:00:13Z</time>
      </trkpt>
      <trkpt lat="45.77564" lon="4.83845">
        <ele>192.4</ele>
        <time>2014-02-23T10:00:22Z</time>
      </trkpt>
      <trkpt lat="45.77558" lon="4.83855">
        <ele>189.04</ele>
        <time>2014-02-23T10:00:28Z</time>
      </trkpt>
      <trkpt lat="45.77554" lon="4.83865">
        <ele>186.15</ele>
        <time>2014-02-23T10:00:36Z</time>
      </trkpt>
      <trkpt lat="45.77561" lon="4.83866">
        <ele>182.31</ele>
        <time>2014-02-23T10:00:43Z</time>
      </trkpt>
      <trkpt lat="45.7756" lon="4.83867">
        <ele>182.31</ele>
        <time>2014-02-23T10:00:44Z</time>
      </trkpt>
      <trkpt lat="45.77557" lon="4.83867">
        <ele>181.35</ele>
        <time>2014-02-23T10:00:47Z</time>
      </trkpt>
      <trkpt lat="45.77531" lon="4.83861">
        <ele>180.87</ele>
        <time>2014-02-23T10:00:58Z</time>
      </trkpt>
      <trkpt lat="45.77535" lon="4.83817">
        <ele>178.46</ele>
        <time>2014-02-23T10:01:08Z</time>
      </trkpt>
      <trkpt lat="45.77538" lon="4.83785">
        <ele>176.54</ele>
        <time>2014-02-23T10:01:16Z</time>
      </trkpt>
      <trkpt lat="45.77534" lon="4.83775">
        <ele>176.06</ele>
        <time>2014-02-23T10:01:20Z</time>
      </trkpt>
      <trkpt lat="45.77521" lon="4.83795">
        <ele>172.69</ele>
        <time>2014-02-23T10:01:30Z</time>
      </trkpt>
      <trkpt lat="45.7752" lon="4.83795">
        <ele>172.69</ele>
        <time>2014-02-23T10:01:31Z</time>
      </trkpt>
      <trkpt lat="45.7751" lon="4.83792">
        <ele>170.77</ele>
        <time>2014-02-23T10:01:35Z</time>
      </trkpt>
      <trkpt lat="45.77496" lon="4.83782">
        <ele>168.37</ele>
        <time>2014-02-23T10:01:41Z</time>
      </trkpt>
      <trkpt lat="45.77469" lon="4.83766">
        <ele>165</ele>
        <time>2014-02-23T10:01:52Z</time>
      </trkpt>
      <trkpt lat="45.77443" lon="4.83756">
        <ele>162.12</ele>
        <time>2014-02-23T10:02:00Z</time>
      </trkpt>
      <trkpt lat="45.77425" lon="4.83768">
        <ele>159.72</ele>
        <time>2014-02-23T10:02:09Z</time>
      </trkpt>
      <trkpt lat="45.77421" lon="4.8378">
        <ele>162.6</ele>
        <time>2014-02-23T10:02:16Z</time>
      </trkpt>
      <trkpt lat="45.77421" lon="4.83779">
        <ele>163.08</ele>
        <time>2014-02-23T10:02:17Z</time>
      </trkpt>
      <trkpt lat="45.7742" lon="4.83776">
        <ele>164.52</ele>
        <time>2014-02-23T10:02:20Z</time>
      </trkpt>
      <trkpt lat="45.77416" lon="4.83757">
        <ele>167.89</ele>
        <time>2014-02-23T10:02:30Z</time>
      </trkpt>
      <trkpt lat="45.77418" lon="4.83752">
        <ele>168.85</ele>
        <time>2014-02-23T10:02:32Z</time>
      </trkpt>
      <trkpt lat="45.7742" lon="4.8375">
        <ele>170.77</ele>
        <time>2014-02-23T10:02:36Z</time>
      </trkpt>
      <trkpt lat="45.77421" lon="4.83748">
        <ele>171.73</ele>
        <time>2014-02-23T10:02:38Z</time>
      </trkpt>
      <trkpt lat="45.77424" lon="4.83748">
        <ele>173.66</ele>
        <time>2014-02-23T10:02:44Z</time>
      </trkpt>
      <trkpt lat="45.77427" lon="4.83745">
        <ele>175.1</ele>
        <time>2014-02-23T10:02:47Z</time>
      </trkpt>
      <trkpt lat="45.77419" lon="4.83735">
        <ele>177.02</ele>
        <time>2014-02-23T10:02:56Z</time>
      </trkpt>
      <trkpt lat="45.77424" lon="4.83729">
        <ele>178.94</ele>
        <time>2014-02-23T10:03:01Z</time>
      </trkpt>
      <trkpt lat="45.77442" lon="4.83719">
        <ele>183.27</ele>
        <time>2014-02-23T10:03:11Z</time>
      </trkpt>
      <trkpt lat="45.77452" lon="4.83722">
        <ele>186.15</ele>
        <time>2014-02-23T10:03:19Z</time>
      </trkpt>
      <trkpt lat="45.77452" lon="4.83723">
        <ele>186.15</ele>
        <time>2014-02-23T10:03:20Z</time>
      </trkpt>
      <trkpt lat="45.7746" lon="4.83715">
        <ele>190</ele>
        <time>2014-02-23T10:03:30Z</time>
      </trkpt>
      <trkpt lat="45.77469" lon="4.83704">
        <ele>193.36</ele>
        <time>2014-02-23T10:03:40Z</time>
      </trkpt>
      <trkpt lat="45.77472" lon="4.83694">
        <ele>195.77</ele>
        <time>2014-02-23T10:03:46Z</time>
      </trkpt>
      <trkpt lat="45.77475" lon="4.83684">
        <ele>198.65</ele>
        <time>2014-02-23T10:03:54Z</time>
      </trkpt>
      <trkpt lat="45.77474" lon="4.83672">
        <ele>202.01</ele>
        <time>2014-02-23T10:04:02Z</time>
      </trkpt>
      <trkpt lat="45.77476" lon="4.8366">
        <ele>204.42</ele>
        <time>2014-02-23T10:04:10Z</time>
      </trkpt>
      <trkpt lat="45.77479" lon="4.83652">
        <ele>205.86</ele>
        <time>2014-02-23T10:04:15Z</time>
      </trkpt>
      <trkpt lat="45.77481" lon="4.83631">
        <ele>209.22</ele>
        <time>2014-02-23T10:04:28Z</time>
      </trkpt>
      <trkpt lat="45.77483" lon="4.83624">
        <ele>212.11</ele>
        <time>2014-02-23T10:04:36Z</time>
      </trkpt>
      <trkpt lat="45.77481" lon="4.83628">
        <ele>213.55</ele>
        <time>2014-02-23T10:04:39Z</time>
      </trkpt>
      <trkpt lat="45.77482" lon="4.83618">
        <ele>216.91</ele>
        <time>2014-02-23T10:04:50Z</time>
      </trkpt>
      <trkpt lat="45.7748" lon="4.83612">
        <ele>217.4</ele>
        <time>2014-02-23T10:04:53Z</time>
      </trkpt>
      <trkpt lat="45.77441" lon="4.83612">
        <ele>215.47</ele>
        <time>2014-02-23T10:05:10Z</time>
      </trkpt>
      <trkpt lat="45.77415" lon="4.83614">
        <ele>212.59</ele>
        <time>2014-02-23T10:05:20Z</time>
      </trkpt>
      <trkpt lat="45.77414" lon="4.83612">
        <ele>212.11</ele>
        <time>2014-02-23T10:05:21Z</time>
      </trkpt>
      <trkpt lat="45.77421" lon="4.83588">
        <ele>214.51</ele>
        <time>2014-02-23T10:05:30Z</time>
      </trkpt>
      <trkpt lat="45.77423" lon="4.83582">
        <ele>216.91</ele>
        <time>2014-02-23T10:05:33Z</time>
      </trkpt>
      <trkpt lat="45.77428" lon="4.83559">
        <ele>219.8</ele>
        <time>2014-02-23T10:05:42Z</time>
      </trkpt>
      <trkpt lat="45.77429" lon="4.83553">
        <ele>221.72</ele>
        <time>2014-02-23T10:05:45Z</time>
      </trkpt>
      <trkpt lat="45.7743" lon="4.83544">
        <ele>224.12</ele>
        <time>2014-02-23T10:05:49Z</time>
      </trkpt>
      <trkpt lat="45.77432" lon="4.83536">
        <ele>225.57</ele>
        <time>2014-02-23T10:05:52Z</time>
      </trkpt>
      <trkpt lat="45.77433" lon="4.8353">
        <ele>227.49</ele>
        <time>2014-02-23T10:05:56Z</time>
      </trkpt>
      <trkpt lat="45.7744" lon="4.83525">
        <ele>227.97</ele>
        <time>2014-02-23T10:06:02Z</time>
      </trkpt>
      <trkpt lat="45.77458" lon="4.83538">
        <ele>227.97</ele>
        <time>2014-02-23T10:06:09Z</time>
      </trkpt>
      <trkpt lat="45.77475" lon="4.83538">
        <ele>227.97</ele>
        <time>2014-02-23T10:06:21Z</time>
      </trkpt>
      <trkpt lat="45.77482" lon="4.83536">
        <ele>227.97</ele>
        <time>2014-02-23T10:06:25Z</time>
      </trkpt>
      <trkpt lat="45.77487" lon="4.83541">
        <ele>227.97</ele>
        <time>2014-02-23T10:06:29Z</time>
      </trkpt>
      <trkpt lat="45.77488" lon="4.83556">
        <ele>224.12</ele>
        <time>2014-02-23T10:06:40Z</time>
      </trkpt>
      <trkpt lat="45.77488" lon="4.83552">
        <ele>224.12</ele>
        <time>2014-02-23T10:06:54Z</time>
      </trkpt>
      <trkpt lat="45.77489" lon="4.83549">
        <ele>225.09</ele>
        <time>2014-02-23T10:06:57Z</time>
      </trkpt>
      <trkpt lat="45.77485" lon="4.83538">
        <ele>228.45</ele>
        <time>2014-02-23T10:07:06Z</time>
      </trkpt>
      <trkpt lat="45.77483" lon="4.83527">
        <ele>228.93</ele>
        <time>2014-02-23T10:07:11Z</time>
      </trkpt>
      <trkpt lat="45.77482" lon="4.83495">
        <ele>231.33</ele>
        <time>2014-02-23T10:07:25Z</time>
      </trkpt>
      <trkpt lat="45.77451" lon="4.8348">
        <ele>231.81</ele>
        <time>2014-02-23T10:07:41Z</time>
      </trkpt>
      <trkpt lat="45.7744" lon="4.83444">
        <ele>232.78</ele>
        <time>2014-02-23T10:07:52Z</time>
      </trkpt>
      <trkpt lat="45.77455" lon="4.83401">
        <ele>232.3</ele>
        <time>2014-02-23T10:08:05Z</time>
      </trkpt>
      <trkpt lat="45.7745" lon="4.83365">
        <ele>232.78</ele>
        <time>2014-02-23T10:08:14Z</time>
      </trkpt>
      <trkpt lat="45.77444" lon="4.83322">
        <ele>232.78</ele>
        <time>2014-02-23T10:08:25Z</time>
      </trkpt>
      <trkpt lat="45.77435" lon="4.83288">
        <ele>233.26</ele>
        <time>2014-02-23T10:08:36Z</time>
      </trkpt>
      <trkpt lat="45.77425" lon="4.83225">
        <ele>233.74</ele>
        <time>2014-02-23T10:08:52Z</time>
      </trkpt>
      <trkpt lat="45.77414" lon="4.83222">
        <ele>233.74</ele>
        <time>2014-02-23T10:08:55Z</time>
      </trkpt>
      <trkpt lat="45.77392" lon="4.83221">
        <ele>233.74</ele>
        <time>2014-02-23T10:09:00Z</time>
      </trkpt>
      <trkpt lat="45.77385" lon="4.83222">
        <ele>233.26</ele>
        <time>2014-02-23T10:09:03Z</time>
      </trkpt>
      <trkpt lat="45.77378" lon="4.83219">
        <ele>233.26</ele>
        <time>2014-02-23T10:09:06Z</time>
      </trkpt>
      <trkpt lat="45.77369" lon="4.83218">
        <ele>233.26</ele>
        <time>2014-02-23T10:09:08Z</time>
      </trkpt>
      <trkpt lat="45.77347" lon="4.83205">
        <ele>231.81</ele>
        <time>2014-02-23T10:09:19Z</time>
      </trkpt>
      <trkpt lat="45.77317" lon="4.83196">
        <ele>229.41</ele>
        <time>2014-02-23T10:09:29Z</time>
      </trkpt>
      <trkpt lat="45.77281" lon="4.8318">
        <ele>227.97</ele>
        <time>2014-02-23T10:09:40Z</time>
      </trkpt>
      <trkpt lat="45.77243" lon="4.83146">
        <ele>225.57</ele>
        <time>2014-02-23T10:09:54Z</time>
      </trkpt>
      <trkpt lat="45.77215" lon="4.83183">
        <ele>222.68</ele>
        <time>2014-02-23T10:10:06Z</time>
      </trkpt>
      <trkpt lat="45.77193" lon="4.83214">
        <ele>220.28</ele>
        <time>2014-02-23T10:10:17Z</time>
      </trkpt>
      <trkpt lat="45.7718" lon="4.83244">
        <ele>216.43</ele>
        <time>2014-02-23T10:10:26Z</time>
      </trkpt>
      <trkpt lat="45.77179" lon="4.83251">
        <ele>215.95</ele>
        <time>2014-02-23T10:10:28Z</time>
      </trkpt>
      <trkpt lat="45.77179" lon="4.83283">
        <ele>213.07</ele>
        <time>2014-02-23T10:10:38Z</time>
      </trkpt>
      <trkpt lat="45.7718" lon="4.83296">
        <ele>210.67</ele>
        <time>2014-02-23T10:10:47Z</time>
      </trkpt>
      <trkpt lat="45.7717" lon="4.83306">
        <ele>207.78</ele>
        <time>2014-02-23T10:10:52Z</time>
      </trkpt>
      <trkpt lat="45.77169" lon="4.83308">
        <ele>206.82</ele>
        <time>2014-02-23T10:10:54Z</time>
      </trkpt>
      <trkpt lat="45.77147" lon="4.83315">
        <ele>204.42</ele>
        <time>2014-02-23T10:11:09Z</time>
      </trkpt>
      <trkpt lat="45.77133" lon="4.83317">
        <ele>201.05</ele>
        <time>2014-02-23T10:11:19Z</time>
      </trkpt>
      <trkpt lat="45.77114" lon="4.8332">
        <ele>199.13</ele>
        <time>2014-02-23T10:11:32Z</time>
      </trkpt>
      <trkpt lat="45.77103" lon="4.83322">
        <ele>196.73</ele>
        <time>2014-02-23T10:11:39Z</time>
      </trkpt>
      <trkpt lat="45.77093" lon="4.83323">
        <ele>193.36</ele>
        <time>2014-02-23T10:11:48Z</time>
      </trkpt>
      <trkpt lat="45.77062" lon="4.83331">
        <ele>191.44</ele>
        <time>2014-02-23T10:11:56Z</time>
      </trkpt>
      <trkpt lat="45.77035" lon="4.83337">
        <ele>189.04</ele>
        <time>2014-02-23T10:12:08Z</time>
      </trkpt>
      <trkpt lat="45.77036" lon="4.83342">
        <ele>188.08</ele>
        <time>2014-02-23T10:12:12Z</time>
      </trkpt>
      <trkpt lat="45.77025" lon="4.83341">
        <ele>185.19</ele>
        <time>2014-02-23T10:12:17Z</time>
      </trkpt>
      <trkpt lat="45.7701" lon="4.83334">
        <ele>181.83</ele>
        <time>2014-02-23T10:12:30Z</time>
      </trkpt>
      <trkpt lat="45.77009" lon="4.83332">
        <ele>180.87</ele>
        <time>2014-02-23T10:12:32Z</time>
      </trkpt>
      <trkpt lat="45.77007" lon="4.83326">
        <ele>177.5</ele>
        <time>2014-02-23T10:12:39Z</time>
      </trkpt>
      <trkpt lat="45.77006" lon="4.83326">
        <ele>175.58</ele>
        <time>2014-02-23T10:12:43Z</time>
      </trkpt>
      <trkpt lat="45.76979" lon="4.83312">
        <ele>174.14</ele>
        <time>2014-02-23T10:12:56Z</time>
      </trkpt>
      <trkpt lat="45.76979" lon="4.83265">
        <ele>174.62</ele>
        <time>2014-02-23T10:13:07Z</time>
      </trkpt>
      <trkpt lat="45.7695" lon="4.832">
        <ele>175.58</ele>
        <time>2014-02-23T10:13:21Z</time>
      </trkpt>
      <trkpt lat="45.76963" lon="4.83166">
        <ele>176.54</ele>
        <time>2014-02-23T10:13:33Z</time>
      </trkpt>
      <trkpt lat="45.76927" lon="4.83177">
        <ele>173.66</ele>
        <time>2014-02-23T10:13:48Z</time>
      </trkpt>
      <trkpt lat="45.7692" lon="4.83182">
        <ele>173.17</ele>
        <time>2014-02-23T10:13:50Z</time>
      </trkpt>
      <trkpt lat="45.7691" lon="4.83173">
        <ele>171.25</ele>
        <time>2014-02-23T10:13:55Z</time>
      </trkpt>
      <trkpt lat="45.76901" lon="4.83128">
        <ele>169.81</ele>
        <time>2014-02-23T10:14:10Z</time>
      </trkpt>
      <trkpt lat="45.76896" lon="4.83056">
        <ele>168.85</ele>
        <time>2014-02-23T10:14:27Z</time>
      </trkpt>
      <trkpt lat="45.76891" lon="4.83032">
        <ele>168.85</ele>
        <time>2014-02-23T10:14:32Z</time>
      </trkpt>
      <trkpt lat="45.76888" lon="4.82974">
        <ele>168.37</ele>
        <time>2014-02-23T10:14:47Z</time>
      </trkpt>
      <trkpt lat="45.76879" lon="4.82913">
        <ele>168.85</ele>
        <time>2014-02-23T10:15:03Z</time>
      </trkpt>
      <trkpt lat="45.76897" lon="4.8285">
        <ele>168.37</ele>
        <time>2014-02-23T10:15:15Z</time>
      </trkpt>
      <trkpt lat="45.76877" lon="4.82805">
        <ele>167.89</ele>
        <time>2014-02-23T10:15:27Z</time>
      </trkpt>
      <trkpt lat="45.76866" lon="4.82802">
        <ele>167.89</ele>
        <time>2014-02-23T10:15:30Z</time>
      </trkpt>
      <trkpt lat="45.76837" lon="4.82808">
        <ele>167.41</ele>
        <time>2014-02-23T10:15:34Z</time>
      </trkpt>
      <trkpt lat="45.76828" lon="4.82798">
        <ele>166.93</ele>
        <time>2014-02-23T10:15:39Z</time>
      </trkpt>
      <trkpt lat="45.76802" lon="4.82761">
        <ele>166.93</ele>
        <time>2014-02-23T10:15:52Z</time>
      </trkpt>
      <trkpt lat="45.76802" lon="4.82756">
        <ele>168.85</ele>
        <time>2014-02-23T10:16:37Z</time>
      </trkpt>
      <trkpt lat="45.76803" lon="4.82755">
        <ele>169.33</ele>
        <time>2014-02-23T10:16:39Z</time>
      </trkpt>
      <trkpt lat="45.7681" lon="4.82725">
        <ele>169.33</ele>
        <time>2014-02-23T10:16:49Z</time>
      </trkpt>
      <trkpt lat="45.76821" lon="4.82686">
        <ele>169.33</ele>
        <time>2014-02-23T10:16:59Z</time>
      </trkpt>
      <trkpt lat="45.76824" lon="4.82644">
        <ele>169.81</ele>
        <time>2014-02-23T10:17:11Z</time>
      </trkpt>
      <trkpt lat="45.76827" lon="4.82602">
        <ele>169.81</ele>
        <time>2014-02-23T10:17:23Z</time>
      </trkpt>
      <trkpt lat="45.7683" lon="4.82562">
        <ele>170.29</ele>
        <time>2014-02-23T10:17:33Z</time>
      </trkpt>
      <trkpt lat="45.76839" lon="4.82516">
        <ele>170.29</ele>
        <time>2014-02-23T10:17:43Z</time>
      </trkpt>
      <trkpt lat="45.76845" lon="4.82475">
        <ele>170.29</ele>
        <time>2014-02-23T10:17:54Z</time>
      </trkpt>
      <trkpt lat="45.76853" lon="4.82446">
        <ele>170.77</ele>
        <time>2014-02-23T10:18:00Z</time>
      </trkpt>
      <trkpt lat="45.76861" lon="4.82425">
        <ele>170.77</ele>
        <time>2014-02-23T10:18:04Z</time>
      </trkpt>
      <trkpt lat="45.76868" lon="4.82391">
        <ele>170.77</ele>
        <time>2014-02-23T10:18:11Z</time>
      </trkpt>
      <trkpt lat="45.76894" lon="4.82326">
        <ele>170.77</ele>
        <time>2014-02-23T10:18:24Z</time>
      </trkpt>
      <trkpt lat="45.76912" lon="4.82298">
        <ele>170.77</ele>
        <time>2014-02-23T10:18:29Z</time>
      </trkpt>
      <trkpt lat="45.76933" lon="4.82252">
        <ele>171.25</ele>
        <time>2014-02-23T10:18:39Z</time>
      </trkpt>
      <trkpt lat="45.76951" lon="4.8219">
        <ele>170.77</ele>
        <time>2014-02-23T10:18:53Z</time>
      </trkpt>
      <trkpt lat="45.76972" lon="4.82152">
        <ele>170.29</ele>
        <time>2014-02-23T10:18:59Z</time>
      </trkpt>
      <trkpt lat="45.7698" lon="4.82123">
        <ele>170.29</ele>
        <time>2014-02-23T10:19:06Z</time>
      </trkpt>
      <trkpt lat="45.76948" lon="4.821">
        <ele>169.81</ele>
        <time>2014-02-23T10:19:17Z</time>
      </trkpt>
      <trkpt lat="45.7695" lon="4.8208">
        <ele>169.81</ele>
        <time>2014-02-23T10:19:21Z</time>
      </trkpt>
      <trkpt lat="45.76974" lon="4.82013">
        <ele>169.81</ele>
        <time>2014-02-23T10:19:34Z</time>
      </trkpt>
      <trkpt lat="45.76975" lon="4.81978">
        <ele>169.81</ele>
        <time>2014-02-23T10:19:44Z</time>
      </trkpt>
      <trkpt lat="45.76977" lon="4.81936">
        <ele>169.33</ele>
        <time>2014-02-23T10:19:56Z</time>
      </trkpt>
      <trkpt lat="45.76974" lon="4.81894">
        <ele>168.37</ele>
        <time>2014-02-23T10:20:08Z</time>
      </trkpt>
      <trkpt lat="45.76975" lon="4.81865">
        <ele>167.41</ele>
        <time>2014-02-23T10:20:17Z</time>
      </trkpt>
      <trkpt lat="45.76982" lon="4.81811">
        <ele>166.45</ele>
        <time>2014-02-23T10:20:30Z</time>
      </trkpt>
      <trkpt lat="45.76987" lon="4.81762">
        <ele>165.96</ele>
        <time>2014-02-23T10:20:45Z</time>
      </trkpt>
      <trkpt lat="45.77004" lon="4.81713">
        <ele>165.48</ele>
        <time>2014-02-23T10:20:58Z</time>
      </trkpt>
      <trkpt lat="45.76826" lon="4.81754">
        <ele>164.04</ele>
        <time>2014-02-23T10:21:07Z</time>
      </trkpt>
      <trkpt lat="45.76829" lon="4.81727">
        <ele>163.56</ele>
        <time>2014-02-23T10:21:18Z</time>
      </trkpt>
      <trkpt lat="45.76841" lon="4.81688">
        <ele>163.08</ele>
        <time>2014-02-23T10:21:31Z</time>
      </trkpt>
      <trkpt lat="45.76863" lon="4.81657">
        <ele>162.6</ele>
        <time>2014-02-23T10:21:44Z</time>
      </trkpt>
      <trkpt lat="45.76889" lon="4.8163">
        <ele>163.08</ele>
        <time>2014-02-23T10:21:57Z</time>
      </trkpt>
      <trkpt lat="45.76907" lon="4.81561">
        <ele>162.12</ele>
        <time>2014-02-23T10:22:10Z</time>
      </trkpt>
      <trkpt lat="45.76922" lon="4.81541">
        <ele>162.12</ele>
        <time>2014-02-23T10:22:17Z</time>
      </trkpt>
      <trkpt lat="45.76954" lon="4.81525">
        <ele>161.64</ele>
        <time>2014-02-23T10:22:29Z</time>
      </trkpt>
      <trkpt lat="45.7699" lon="4.81511">
        <ele>161.64</ele>
        <time>2014-02-23T10:22:43Z</time>
      </trkpt>
      <trkpt lat="45.77012" lon="4.81487">
        <ele>161.64</ele>
        <time>2014-02-23T10:22:54Z</time>
      </trkpt>
      <trkpt lat="45.77036" lon="4.81464">
        <ele>161.64</ele>
        <time>2014-02-23T10:23:04Z</time>
      </trkpt>
      <trkpt lat="45.77064" lon="4.81447">
        <ele>161.16</ele>
        <time>2014-02-23T10:23:14Z</time>
      </trkpt>
      <trkpt lat="45.77095" lon="4.8143">
        <ele>160.2</ele>
        <time>2014-02-23T10:23:26Z</time>
      </trkpt>
      <trkpt lat="45.77099" lon="4.81429">
        <ele>160.2</ele>
        <time>2014-02-23T10:23:27Z</time>
      </trkpt>
      <trkpt lat="45.77118" lon="4.81422">
        <ele>160.2</ele>
        <time>2014-02-23T10:23:32Z</time>
      </trkpt>
      <trkpt lat="45.77126" lon="4.81408">
        <ele>160.2</ele>
        <time>2014-02-23T10:23:36Z</time>
      </trkpt>
      <trkpt lat="45.77131" lon="4.81396">
        <ele>159.72</ele>
        <time>2014-02-23T10:23:41Z</time>
      </trkpt>
      <trkpt lat="45.77165" lon="4.81421">
        <ele>162.6</ele>
        <time>2014-02-23T10:23:51Z</time>
      </trkpt>
      <trkpt lat="45.77166" lon="4.81429">
        <ele>165.96</ele>
        <time>2014-02-23T10:23:57Z</time>
      </trkpt>
      <trkpt lat="45.77155" lon="4.81438">
        <ele>168.37</ele>
        <time>2014-02-23T10:24:05Z</time>
      </trkpt>
      <trkpt lat="45.77153" lon="4.81451">
        <ele>171.25</ele>
        <time>2014-02-23T10:24:15Z</time>
      </trkpt>
      <trkpt lat="45.77147" lon="4.81459">
        <ele>174.62</ele>
        <time>2014-02-23T10:24:24Z</time>
      </trkpt>
      <trkpt lat="45.77146" lon="4.81459">
        <ele>175.58</ele>
        <time>2014-02-23T10:24:26Z</time>
      </trkpt>
      <trkpt lat="45.77147" lon="4.81458">
        <ele>178.94</ele>
        <time>2014-02-23T10:24:35Z</time>
      </trkpt>
      <trkpt lat="45.77149" lon="4.81472">
        <ele>182.31</ele>
        <time>2014-02-23T10:24:45Z</time>
      </trkpt>
      <trkpt lat="45.77154" lon="4.8148">
        <ele>184.23</ele>
        <time>2014-02-23T10:24:51Z</time>
      </trkpt>
      <trkpt lat="45.77145" lon="4.8149">
        <ele>187.59</ele>
        <time>2014-02-23T10:25:00Z</time>
      </trkpt>
      <trkpt lat="45.77139" lon="4.81514">
        <ele>190.48</ele>
        <time>2014-02-23T10:25:10Z</time>
      </trkpt>
      <trkpt lat="45.77139" lon="4.81516">
        <ele>191.44</ele>
        <time>2014-02-23T10:25:12Z</time>
      </trkpt>
      <trkpt lat="45.77142" lon="4.81526">
        <ele>193.84</ele>
        <time>2014-02-23T10:25:20Z</time>
      </trkpt>
      <trkpt lat="45.77163" lon="4.81542">
        <ele>197.69</ele>
        <time>2014-02-23T10:25:34Z</time>
      </trkpt>
      <trkpt lat="45.77186" lon="4.81545">
        <ele>198.17</ele>
        <time>2014-02-23T10:25:48Z</time>
      </trkpt>
      <trkpt lat="45.77197" lon="4.81544">
        <ele>198.17</ele>
        <time>2014-02-23T10:25:54Z</time>
      </trkpt>
      <trkpt lat="45.77207" lon="4.81549">
        <ele>197.69</ele>
        <time>2014-02-23T10:25:59Z</time>
      </trkpt>
      <trkpt lat="45.77218" lon="4.81556">
        <ele>197.69</ele>
        <time>2014-02-23T10:26:05Z</time>
      </trkpt>
      <trkpt lat="45.77249" lon="4.81562">
        <ele>198.17</ele>
        <time>2014-02-23T10:26:19Z</time>
      </trkpt>
      <trkpt lat="45.77254" lon="4.81564">
        <ele>198.17</ele>
        <time>2014-02-23T10:26:23Z</time>
      </trkpt>
      <trkpt lat="45.77283" lon="4.81563">
        <ele>197.21</ele>
        <time>2014-02-23T10:26:37Z</time>
      </trkpt>
      <trkpt lat="45.77312" lon="4.81561">
        <ele>197.21</ele>
        <time>2014-02-23T10:26:48Z</time>
      </trkpt>
      <trkpt lat="45.77336" lon="4.81559">
        <ele>197.21</ele>
        <time>2014-02-23T10:26:58Z</time>
      </trkpt>
      <trkpt lat="45.7737" lon="4.81532">
        <ele>194.8</ele>
        <time>2014-02-23T10:27:10Z</time>
      </trkpt>
      <trkpt lat="45.77402" lon="4.81511">
        <ele>196.25</ele>
        <time>2014-02-23T10:27:22Z</time>
      </trkpt>
      <trkpt lat="45.7741" lon="4.81507">
        <ele>197.21</ele>
        <time>2014-02-23T10:27:28Z</time>
      </trkpt>
      <trkpt lat="45.7742" lon="4.81518">
        <ele>197.69</ele>
        <time>2014-02-23T10:27:34Z</time>
      </trkpt>
      <trkpt lat="45.77422" lon="4.81519">
        <ele>197.69</ele>
        <time>2014-02-23T10:27:38Z</time>
      </trkpt>
      <trkpt lat="45.77439" lon="4.81511">
        <ele>197.69</ele>
        <time>2014-02-23T10:27:46Z</time>
      </trkpt>
      <trkpt lat="45.77468" lon="4.81512">
        <ele>196.73</ele>
        <time>2014-02-23T10:27:58Z</time>
      </trkpt>
      <trkpt lat="45.77484" lon="4.81515">
        <ele>200.09</ele>
        <time>2014-02-23T10:28:08Z</time>
      </trkpt>
      <trkpt lat="45.77488" lon="4.81514">
        <ele>200.09</ele>
        <time>2014-02-23T10:28:09Z</time>
      </trkpt>
      <trkpt lat="45.77506" lon="4.81517">
        <ele>203.46</ele>
        <time>2014-02-23T10:28:18Z</time>
      </trkpt>
      <trkpt lat="45.77512" lon="4.81517">
        <ele>204.42</ele>
        <time>2014-02-23T10:28:21Z</time>
      </trkpt>
      <trkpt lat="45.77528" lon="4.81519">
        <ele>205.38</ele>
        <time>2014-02-23T10:28:28Z</time>
      </trkpt>
      <trkpt lat="45.77566" lon="4.81505">
        <ele>202.98</ele>
        <time>2014-02-23T10:28:41Z</time>
      </trkpt>
      <trkpt lat="45.776" lon="4.81495">
        <ele>201.53</ele>
        <time>2014-02-23T10:28:51Z</time>
      </trkpt>
      <trkpt lat="45.77624" lon="4.81505">
        <ele>204.9</ele>
        <time>2014-02-23T10:29:02Z</time>
      </trkpt>
      <trkpt lat="45.77642" lon="4.81524">
        <ele>207.78</ele>
        <time>2014-02-23T10:29:12Z</time>
      </trkpt>
      <trkpt lat="45.7765" lon="4.81543">
        <ele>211.15</ele>
        <time>2014-02-23T10:29:21Z</time>
      </trkpt>
      <trkpt lat="45.77653" lon="4.81552">
        <ele>212.59</ele>
        <time>2014-02-23T10:29:25Z</time>
      </trkpt>
      <trkpt lat="45.7764" lon="4.81554">
        <ele>214.99</ele>
        <time>2014-02-23T10:29:32Z</time>
      </trkpt>
      <trkpt lat="45.77641" lon="4.81518">
        <ele>216.91</ele>
        <time>2014-02-23T10:29:45Z</time>
      </trkpt>
      <trkpt lat="45.77658" lon="4.81537">
        <ele>218.36</ele>
        <time>2014-02-23T10:29:54Z</time>
      </trkpt>
      <trkpt lat="45.77658" lon="4.81585">
        <ele>219.8</ele>
        <time>2014-02-23T10:30:08Z</time>
      </trkpt>
      <trkpt lat="45.77661" lon="4.81625">
        <ele>222.68</ele>
        <time>2014-02-23T10:30:22Z</time>
      </trkpt>
      <trkpt lat="45.77641" lon="4.81639">
        <ele>223.16</ele>
        <time>2014-02-23T10:30:27Z</time>
      </trkpt>
      <trkpt lat="45.77608" lon="4.81656">
        <ele>223.64</ele>
        <time>2014-02-23T10:30:39Z</time>
      </trkpt>
      <trkpt lat="45.77581" lon="4.81643">
        <ele>220.76</ele>
        <time>2014-02-23T10:30:51Z</time>
      </trkpt>
      <trkpt lat="45.77578" lon="4.81645">
        <ele>220.76</ele>
        <time>2014-02-23T10:30:53Z</time>
      </trkpt>
      <trkpt lat="45.77567" lon="4.81652">
        <ele>223.16</ele>
        <time>2014-02-23T10:31:00Z</time>
      </trkpt>
      <trkpt lat="45.77555" lon="4.8166">
        <ele>225.09</ele>
        <time>2014-02-23T10:31:09Z</time>
      </trkpt>
      <trkpt lat="45.7756" lon="4.81677">
        <ele>225.09</ele>
        <time>2014-02-23T10:31:20Z</time>
      </trkpt>
      <trkpt lat="45.77545" lon="4.81697">
        <ele>225.57</ele>
        <time>2014-02-23T10:31:30Z</time>
      </trkpt>
      <trkpt lat="45.77539" lon="4.81727">
        <ele>227.01</ele>
        <time>2014-02-23T10:31:43Z</time>
      </trkpt>
      <trkpt lat="45.77528" lon="4.81776">
        <ele>227.49</ele>
        <time>2014-02-23T10:31:56Z</time>
      </trkpt>
      <trkpt lat="45.77533" lon="4.81784">
        <ele>227.49</ele>
        <time>2014-02-23T10:32:00Z</time>
      </trkpt>
      <trkpt lat="45.77553" lon="4.81811">
        <ele>227.97</ele>
        <time>2014-02-23T10:32:15Z</time>
      </trkpt>
      <trkpt lat="45.77565" lon="4.81834">
        <ele>227.97</ele>
        <time>2014-02-23T10:32:22Z</time>
      </trkpt>
      <trkpt lat="45.77568" lon="4.81829">
        <ele>227.49</ele>
        <time>2014-02-23T10:32:31Z</time>
      </trkpt>
      <trkpt lat="45.77568" lon="4.81804">
        <ele>226.53</ele>
        <time>2014-02-23T10:32:47Z</time>
      </trkpt>
      <trkpt lat="45.77564" lon="4.81753">
        <ele>226.05</ele>
        <time>2014-02-23T10:32:58Z</time>
      </trkpt>
      <trkpt lat="45.77572" lon="4.81731">
        <ele>225.57</ele>
        <time>2014-02-23T10:33:05Z</time>
      </trkpt>
      <trkpt lat="45.77578" lon="4.81706">
        <ele>225.57</ele>
        <time>2014-02-23T10:33:12Z</time>
      </trkpt>
      <trkpt lat="45.77591" lon="4.81673">
        <ele>224.61</ele>
        <time>2014-02-23T10:33:21Z</time>
      </trkpt>
      <trkpt lat="45.7761" lon="4.81657">
        <ele>223.64</ele>
        <time>2014-02-23T10:33:30Z</time>
      </trkpt>
      <trkpt lat="45.77617" lon="4.81655">
        <ele>223.16</ele>
        <time>2014-02-23T10:33:33Z</time>
      </trkpt>
      <trkpt lat="45.77644" lon="4.81655">
        <ele>222.68</ele>
        <time>2014-02-23T10:33:44Z</time>
      </trkpt>
      <trkpt lat="45.7767" lon="4.81647">
        <ele>221.72</ele>
        <time>2014-02-23T10:33:54Z</time>
      </trkpt>
      <trkpt lat="45.77705" lon="4.81635">
        <ele>220.76</ele>
        <time>2014-02-23T10:34:07Z</time>
      </trkpt>
      <trkpt lat="45.77731" lon="4.81631">
        <ele>220.28</ele>
        <time>2014-02-23T10:34:17Z</time>
      </trkpt>
      <trkpt lat="45.77758" lon="4.81625">
        <ele>219.32</ele>
        <time>2014-02-23T10:34:27Z</time>
      </trkpt>
      <trkpt lat="45.77787" lon="4.81621">
        <ele>219.32</ele>
        <time>2014-02-23T10:34:37Z</time>
      </trkpt>
      <trkpt lat="45.77818" lon="4.81622">
        <ele>218.84</ele>
        <time>2014-02-23T10:34:49Z</time>
      </trkpt>
      <trkpt lat="45.7785" lon="4.8161">
        <ele>217.88</ele>
        <time>2014-02-23T10:35:02Z</time>
      </trkpt>
      <trkpt lat="45.77852" lon="4.81607">
        <ele>217.88</ele>
        <time>2014-02-23T10:35:03Z</time>
      </trkpt>
      <trkpt lat="45.77867" lon="4.81543">
        <ele>215.47</ele>
        <time>2014-02-23T10:35:18Z</time>
      </trkpt>
      <trkpt lat="45.77875" lon="4.81491">
        <ele>214.03</ele>
        <time>2014-02-23T10:35:31Z</time>
      </trkpt>
      <trkpt lat="45.77882" lon="4.8144">
        <ele>212.59</ele>
        <time>2014-02-23T10:35:43Z</time>
      </trkpt>
      <trkpt lat="45.77888" lon="4.8138">
        <ele>211.63</ele>
        <time>2014-02-23T10:35:57Z</time>
      </trkpt>
      <trkpt lat="45.77896" lon="4.81376">
        <ele>211.63</ele>
        <time>2014-02-23T10:36:00Z</time>
      </trkpt>
      <trkpt lat="45.77957" lon="4.81379">
        <ele>210.67</ele>
        <time>2014-02-23T10:36:12Z</time>
      </trkpt>
      <trkpt lat="45.77973" lon="4.81407">
        <ele>211.63</ele>
        <time>2014-02-23T10:36:25Z</time>
      </trkpt>
      <trkpt lat="45.77961" lon="4.81444">
        <ele>212.59</ele>
        <time>2014-02-23T10:36:36Z</time>
      </trkpt>
      <trkpt lat="45.77962" lon="4.81494">
        <ele>213.55</ele>
        <time>2014-02-23T10:36:49Z</time>
      </trkpt>
      <trkpt lat="45.77962" lon="4.81536">
        <ele>214.51</ele>
        <time>2014-02-23T10:37:02Z</time>
      </trkpt>
      <trkpt lat="45.77967" lon="4.8157">
        <ele>216.43</ele>
        <time>2014-02-23T10:37:13Z</time>
      </trkpt>
      <trkpt lat="45.7797" lon="4.81581">
        <ele>217.88</ele>
        <time>2014-02-23T10:37:20Z</time>
      </trkpt>
      <trkpt lat="45.78006" lon="4.81568">
        <ele>218.84</ele>
        <time>2014-02-23T10:37:33Z</time>
      </trkpt>
      <trkpt lat="45.78031" lon="4.81566">
        <ele>218.84</ele>
        <time>2014-02-23T10:37:43Z</time>
      </trkpt>
      <trkpt lat="45.78073" lon="4.81575">
        <ele>219.8</ele>
        <time>2014-02-23T10:37:54Z</time>
      </trkpt>
      <trkpt lat="45.781" lon="4.81589">
        <ele>219.8</ele>
        <time>2014-02-23T10:38:04Z</time>
      </trkpt>
      <trkpt lat="45.78124" lon="4.81602">
        <ele>219.8</ele>
        <time>2014-02-23T10:38:16Z</time>
      </trkpt>
      <trkpt lat="45.78163" lon="4.81612">
        <ele>217.88</ele>
        <time>2014-02-23T10:38:28Z</time>
      </trkpt>
      <trkpt lat="45.78167" lon="4.81609">
        <ele>216.43</ele>
        <time>2014-02-23T10:38:31Z</time>
      </trkpt>
      <trkpt lat="45.78158" lon="4.81604">
        <ele>214.99</ele>
        <time>2014-02-23T10:38:34Z</time>
      </trkpt>
      <trkpt lat="45.78151" lon="4.81599">
        <ele>213.55</ele>
        <time>2014-02-23T10:38:37Z</time>
      </trkpt>
      <trkpt lat="45.78149" lon="4.8159">
        <ele>212.59</ele>
        <time>2014-02-23T10:38:40Z</time>
      </trkpt>
      <trkpt lat="45.78159" lon="4.81595">
        <ele>211.15</ele>
        <time>2014-02-23T10:38:44Z</time>
      </trkpt>
      <trkpt lat="45.78165" lon="4.81595">
        <ele>210.67</ele>
        <time>2014-02-23T10:38:46Z</time>
      </trkpt>
      <trkpt lat="45.78168" lon="4.81596">
        <ele>210.19</ele>
        <time>2014-02-23T10:38:47Z</time>
      </trkpt>
      <trkpt lat="45.78169" lon="4.8159">
        <ele>208.74</ele>
        <time>2014-02-23T10:38:50Z</time>
      </trkpt>
      <trkpt lat="45.78149" lon="4.81574">
        <ele>206.34</ele>
        <time>2014-02-23T10:39:00Z</time>
      </trkpt>
      <trkpt lat="45.78159" lon="4.81573">
        <ele>205.86</ele>
        <time>2014-02-23T10:39:04Z</time>
      </trkpt>
      <trkpt lat="45.78174" lon="4.81572">
        <ele>203.46</ele>
        <time>2014-02-23T10:39:10Z</time>
      </trkpt>
      <trkpt lat="45.78176" lon="4.8156">
        <ele>201.53</ele>
        <time>2014-02-23T10:39:14Z</time>
      </trkpt>
      <trkpt lat="45.78183" lon="4.8155">
        <ele>198.65</ele>
        <time>2014-02-23T10:39:18Z</time>
      </trkpt>
      <trkpt lat="45.78178" lon="4.81542">
        <ele>197.21</ele>
        <time>2014-02-23T10:39:21Z</time>
      </trkpt>
      <trkpt lat="45.78175" lon="4.8154">
        <ele>196.25</ele>
        <time>2014-02-23T10:39:23Z</time>
      </trkpt>
      <trkpt lat="45.78168" lon="4.81517">
        <ele>193.84</ele>
        <time>2014-02-23T10:39:33Z</time>
      </trkpt>
      <trkpt lat="45.78198" lon="4.81525">
        <ele>190</ele>
        <time>2014-02-23T10:39:42Z</time>
      </trkpt>
      <trkpt lat="45.78234" lon="4.81547">
        <ele>191.92</ele>
        <time>2014-02-23T10:39:55Z</time>
      </trkpt>
      <trkpt lat="45.78251" lon="4.81572">
        <ele>195.28</ele>
        <time>2014-02-23T10:40:07Z</time>
      </trkpt>
      <trkpt lat="45.78256" lon="4.81585">
        <ele>198.65</ele>
        <time>2014-02-23T10:40:19Z</time>
      </trkpt>
      <trkpt lat="45.78255" lon="4.81589">
        <ele>199.13</ele>
        <time>2014-02-23T10:40:22Z</time>
      </trkpt>
      <trkpt lat="45.78263" lon="4.81617">
        <ele>202.01</ele>
        <time>2014-02-23T10:40:33Z</time>
      </trkpt>
      <trkpt lat="45.78288" lon="4.8164">
        <ele>204.9</ele>
        <time>2014-02-23T10:40:44Z</time>
      </trkpt>
      <trkpt lat="45.78265" lon="4.8168">
        <ele>207.3</ele>
        <time>2014-02-23T10:40:53Z</time>
      </trkpt>
      <trkpt lat="45.78258" lon="4.8172">
        <ele>210.67</ele>
        <time>2014-02-23T10:41:06Z</time>
      </trkpt>
      <trkpt lat="45.78252" lon="4.8174">
        <ele>214.03</ele>
        <time>2014-02-23T10:41:18Z</time>
      </trkpt>
      <trkpt lat="45.78243" lon="4.81746">
        <ele>214.99</ele>
        <time>2014-02-23T10:41:22Z</time>
      </trkpt>
      <trkpt lat="45.78223" lon="4.81778">
        <ele>218.36</ele>
        <time>2014-02-23T10:41:37Z</time>
      </trkpt>
      <trkpt lat="45.78204" lon="4.81823">
        <ele>221.72</ele>
        <time>2014-02-23T10:41:51Z</time>
      </trkpt>
      <trkpt lat="45.78216" lon="4.8184">
        <ele>224.12</ele>
        <time>2014-02-23T10:42:01Z</time>
      </trkpt>
      <trkpt lat="45.78241" lon="4.81827">
        <ele>225.57</ele>
        <time>2014-02-23T10:42:13Z</time>
      </trkpt>
      <trkpt lat="45.78282" lon="4.81812">
        <ele>226.53</ele>
        <time>2014-02-23T10:42:28Z</time>
      </trkpt>
      <trkpt lat="45.78308" lon="4.81802">
        <ele>226.05</ele>
        <time>2014-02-23T10:42:38Z</time>
      </trkpt>
      <trkpt lat="45.78316" lon="4.81804">
        <ele>226.05</ele>
        <time>2014-02-23T10:42:41Z</time>
      </trkpt>
      <trkpt lat="45.7834" lon="4.81794">
        <ele>226.53</ele>
        <time>2014-02-23T10:42:53Z</time>
      </trkpt>
      <trkpt lat="45.78343" lon="4.81794">
        <ele>226.53</ele>
        <time>2014-02-23T10:42:54Z</time>
      </trkpt>
      <trkpt lat="45.78362" lon="4.81823">
        <ele>226.05</ele>
        <time>2014-02-23T10:43:06Z</time>
      </trkpt>
      <trkpt lat="45.7837" lon="4.81869">
        <ele>226.05</ele>
        <time>2014-02-23T10:43:20Z</time>
      </trkpt>
      <trkpt lat="45.78374" lon="4.81917">
        <ele>226.53</ele>
        <time>2014-02-23T10:43:33Z</time>
      </trkpt>
      <trkpt lat="45.78374" lon="4.81963">
        <ele>227.01</ele>
        <time>2014-02-23T10:43:46Z</time>
      </trkpt>
      <trkpt lat="45.78379" lon="4.82008">
        <ele>227.01</ele>
        <time>2014-02-23T10:44:01Z</time>
      </trkpt>
      <trkpt lat="45.78378" lon="4.82054">
        <ele>227.49</ele>
        <time>2014-02-23T10:44:15Z</time>
      </trkpt>
      <trkpt lat="45.78394" lon="4.82048">
        <ele>227.01</ele>
        <time>2014-02-23T10:44:24Z</time>
      </trkpt>
      <trkpt lat="45.78424" lon="4.82047">
        <ele>227.01</ele>
        <time>2014-02-23T10:44:35Z</time>
      </trkpt>
      <trkpt lat="45.78452" lon="4.82067">
        <ele>226.53</ele>
        <time>2014-02-23T10:44:45Z</time>
      </trkpt>
      <trkpt lat="45.78455" lon="4.82095">
        <ele>226.05</ele>
        <time>2014-02-23T10:44:51Z</time>
      </trkpt>
      <trkpt lat="45.78469" lon="4.82099">
        <ele>226.05</ele>
        <time>2014-02-23T10:44:57Z</time>
      </trkpt>
      <trkpt lat="45.78496" lon="4.8209">
        <ele>222.2</ele>
        <time>2014-02-23T10:45:05Z</time>
      </trkpt>
      <trkpt lat="45.78499" lon="4.82091">
        <ele>222.2</ele>
        <time>2014-02-23T10:45:06Z</time>
      </trkpt>
      <trkpt lat="45.78511" lon="4.82098">
        <ele>218.84</ele>
        <time>2014-02-23T10:45:13Z</time>
      </trkpt>
      <trkpt lat="45.78529" lon="4.82091">
        <ele>216.91</ele>
        <time>2014-02-23T10:45:20Z</time>
      </trkpt>
      <trkpt lat="45.78548" lon="4.82086">
        <ele>212.59</ele>
        <time>2014-02-23T10:45:27Z</time>
      </trkpt>
      <trkpt lat="45.78561" lon="4.82082">
        <ele>209.22</ele>
        <time>2014-02-23T10:45:32Z</time>
      </trkpt>
      <trkpt lat="45.78564" lon="4.82082">
        <ele>209.22</ele>
        <time>2014-02-23T10:45:33Z</time>
      </trkpt>
      <trkpt lat="45.78579" lon="4.82076">
        <ele>205.86</ele>
        <time>2014-02-23T10:45:38Z</time>
      </trkpt>
      <trkpt lat="45.78582" lon="4.82075">
        <ele>205.86</ele>
        <time>2014-02-23T10:45:39Z</time>
      </trkpt>
      <trkpt lat="45.78594" lon="4.82072">
        <ele>202.49</ele>
        <time>2014-02-23T10:45:43Z</time>
      </trkpt>
      <trkpt lat="45.78597" lon="4.8207">
        <ele>202.49</ele>
        <time>2014-02-23T10:45:44Z</time>
      </trkpt>
      <trkpt lat="45.78602" lon="4.82068">
        <ele>201.05</ele>
        <time>2014-02-23T10:45:46Z</time>
      </trkpt>
      <trkpt lat="45.78611" lon="4.82065">
        <ele>198.65</ele>
        <time>2014-02-23T10:45:50Z</time>
      </trkpt>
      <trkpt lat="45.78617" lon="4.82063">
        <ele>197.21</ele>
        <time>2014-02-23T10:45:52Z</time>
      </trkpt>
      <trkpt lat="45.78622" lon="4.8206">
        <ele>195.77</ele>
        <time>2014-02-23T10:45:54Z</time>
      </trkpt>
      <trkpt lat="45.78626" lon="4.82058">
        <ele>192.88</ele>
        <time>2014-02-23T10:45:56Z</time>
      </trkpt>
      <trkpt lat="45.78629" lon="4.82058">
        <ele>192.88</ele>
        <time>2014-02-23T10:45:57Z</time>
      </trkpt>
      <trkpt lat="45.78634" lon="4.82057">
        <ele>190.96</ele>
        <time>2014-02-23T10:45:59Z</time>
      </trkpt>
      <trkpt lat="45.78638" lon="4.82059">
        <ele>189.52</ele>
        <time>2014-02-23T10:46:01Z</time>
      </trkpt>
      <trkpt lat="45.78643" lon="4.82061">
        <ele>188.08</ele>
        <time>2014-02-23T10:46:03Z</time>
      </trkpt>
      <trkpt lat="45.78647" lon="4.82062">
        <ele>186.63</ele>
        <time>2014-02-23T10:46:05Z</time>
      </trkpt>
      <trkpt lat="45.78651" lon="4.82063">
        <ele>185.19</ele>
        <time>2014-02-23T10:46:07Z</time>
      </trkpt>
      <trkpt lat="45.78655" lon="4.82064">
        <ele>183.75</ele>
        <time>2014-02-23T10:46:09Z</time>
      </trkpt>
      <trkpt lat="45.78664" lon="4.82065">
        <ele>181.35</ele>
        <time>2014-02-23T10:46:12Z</time>
      </trkpt>
      <trkpt lat="45.78675" lon="4.82064">
        <ele>177.98</ele>
        <time>2014-02-23T10:46:17Z</time>
      </trkpt>
      <trkpt lat="45.7869" lon="4.82053">
        <ele>174.62</ele>
        <time>2014-02-23T10:46:23Z</time>
      </trkpt>
      <trkpt lat="45.78699" lon="4.82046">
        <ele>172.21</ele>
        <time>2014-02-23T10:46:27Z</time>
      </trkpt>
      <trkpt lat="45.78711" lon="4.82039">
        <ele>168.85</ele>
        <time>2014-02-23T10:46:32Z</time>
      </trkpt>
      <trkpt lat="45.78714" lon="4.82038">
        <ele>168.85</ele>
        <time>2014-02-23T10:46:33Z</time>
      </trkpt>
      <trkpt lat="45.78734" lon="4.82048">
        <ele>165.48</ele>
        <time>2014-02-23T10:46:39Z</time>
      </trkpt>
      <trkpt lat="45.78739" lon="4.82061">
        <ele>164.04</ele>
        <time>2014-02-23T10:46:43Z</time>
      </trkpt>
      <trkpt lat="45.78764" lon="4.82089">
        <ele>160.2</ele>
        <time>2014-02-23T10:46:53Z</time>
      </trkpt>
      <trkpt lat="45.78767" lon="4.82098">
        <ele>159.72</ele>
        <time>2014-02-23T10:46:55Z</time>
      </trkpt>
      <trkpt lat="45.78813" lon="4.82127">
        <ele>157.31</ele>
        <time>2014-02-23T10:47:08Z</time>
      </trkpt>
      <trkpt lat="45.78817" lon="4.82134">
        <ele>156.83</ele>
        <time>2014-02-23T10:47:10Z</time>
      </trkpt>
      <trkpt lat="45.7883" lon="4.82143">
        <ele>156.83</ele>
        <time>2014-02-23T10:47:14Z</time>
      </trkpt>
      <trkpt lat="45.78824" lon="4.82179">
        <ele>156.35</ele>
        <time>2014-02-23T10:47:25Z</time>
      </trkpt>
      <trkpt lat="45.78789" lon="4.82204">
        <ele>156.83</ele>
        <time>2014-02-23T10:47:35Z</time>
      </trkpt>
      <trkpt lat="45.78766" lon="4.82226">
        <ele>157.31</ele>
        <time>2014-02-23T10:47:46Z</time>
      </trkpt>
      <trkpt lat="45.78756" lon="4.82259">
        <ele>159.72</ele>
        <time>2014-02-23T10:48:00Z</time>
      </trkpt>
      <trkpt lat="45.78748" lon="4.82259">
        <ele>162.6</ele>
        <time>2014-02-23T10:48:11Z</time>
      </trkpt>
      <trkpt lat="45.78739" lon="4.82244">
        <ele>165.48</ele>
        <time>2014-02-23T10:48:21Z</time>
      </trkpt>
      <trkpt lat="45.78739" lon="4.82241">
        <ele>165.96</ele>
        <time>2014-02-23T10:48:22Z</time>
      </trkpt>
      <trkpt lat="45.78735" lon="4.8222">
        <ele>168.37</ele>
        <time>2014-02-23T10:48:32Z</time>
      </trkpt>
      <trkpt lat="45.78733" lon="4.8221">
        <ele>169.33</ele>
        <time>2014-02-23T10:48:36Z</time>
      </trkpt>
      <trkpt lat="45.78724" lon="4.8219">
        <ele>172.69</ele>
        <time>2014-02-23T10:48:47Z</time>
      </trkpt>
      <trkpt lat="45.78713" lon="4.8217">
        <ele>176.06</ele>
        <time>2014-02-23T10:48:58Z</time>
      </trkpt>
      <trkpt lat="45.787" lon="4.82157">
        <ele>179.42</ele>
        <time>2014-02-23T10:49:08Z</time>
      </trkpt>
      <trkpt lat="45.78695" lon="4.82156">
        <ele>180.38</ele>
        <time>2014-02-23T10:49:11Z</time>
      </trkpt>
      <trkpt lat="45.78696" lon="4.82158">
        <ele>180.87</ele>
        <time>2014-02-23T10:49:12Z</time>
      </trkpt>
      <trkpt lat="45.78697" lon="4.82189">
        <ele>184.71</ele>
        <time>2014-02-23T10:49:24Z</time>
      </trkpt>
      <trkpt lat="45.78697" lon="4.82207">
        <ele>187.59</ele>
        <time>2014-02-23T10:49:34Z</time>
      </trkpt>
      <trkpt lat="45.78696" lon="4.82209">
        <ele>189.52</ele>
        <time>2014-02-23T10:49:39Z</time>
      </trkpt>
      <trkpt lat="45.78695" lon="4.82201">
        <ele>191.44</ele>
        <time>2014-02-23T10:49:44Z</time>
      </trkpt>
      <trkpt lat="45.7869" lon="4.82181">
        <ele>194.8</ele>
        <time>2014-02-23T10:49:53Z</time>
      </trkpt>
      <trkpt lat="45.78689" lon="4.82179">
        <ele>194.8</ele>
        <time>2014-02-23T10:49:54Z</time>
      </trkpt>
      <trkpt lat="45.78677" lon="4.82165">
        <ele>197.69</ele>
        <time>2014-02-23T10:50:03Z</time>
      </trkpt>
      <trkpt lat="45.78653" lon="4.8217">
        <ele>200.09</ele>
        <time>2014-02-23T10:50:09Z</time>
      </trkpt>
      <trkpt lat="45.7864" lon="4.82178">
        <ele>202.98</ele>
        <time>2014-02-23T10:50:18Z</time>
      </trkpt>
      <trkpt lat="45.78629" lon="4.82185">
        <ele>205.86</ele>
        <time>2014-02-23T10:50:27Z</time>
      </trkpt>
      <trkpt lat="45.78621" lon="4.82197">
        <ele>208.74</ele>
        <time>2014-02-23T10:50:35Z</time>
      </trkpt>
      <trkpt lat="45.78615" lon="4.82208">
        <ele>212.11</ele>
        <time>2014-02-23T10:50:44Z</time>
      </trkpt>
      <trkpt lat="45.78614" lon="4.82213">
        <ele>212.59</ele>
        <time>2014-02-23T10:50:47Z</time>
      </trkpt>
      <trkpt lat="45.78613" lon="4.82238">
        <ele>216.91</ele>
        <time>2014-02-23T10:50:59Z</time>
      </trkpt>
      <trkpt lat="45.78609" lon="4.82258">
        <ele>219.32</ele>
        <time>2014-02-23T10:51:07Z</time>
      </trkpt>
      <trkpt lat="45.78604" lon="4.82275">
        <ele>222.68</ele>
        <time>2014-02-23T10:51:16Z</time>
      </trkpt>
      <trkpt lat="45.78602" lon="4.82281">
        <ele>224.12</ele>
        <time>2014-02-23T10:51:20Z</time>
      </trkpt>
      <trkpt lat="45.78605" lon="4.82298">
        <ele>227.97</ele>
        <time>2014-02-23T10:51:29Z</time>
      </trkpt>
      <trkpt lat="45.78608" lon="4.82314">
        <ele>231.33</ele>
        <time>2014-02-23T10:51:39Z</time>
      </trkpt>
      <trkpt lat="45.78608" lon="4.82316">
        <ele>232.3</ele>
        <time>2014-02-23T10:51:41Z</time>
      </trkpt>
      <trkpt lat="45.78603" lon="4.82321">
        <ele>235.66</ele>
        <time>2014-02-23T10:51:50Z</time>
      </trkpt>
      <trkpt lat="45.78602" lon="4.82321">
        <ele>235.66</ele>
        <time>2014-02-23T10:51:51Z</time>
      </trkpt>
      <trkpt lat="45.7857" lon="4.82322">
        <ele>239.02</ele>
        <time>2014-02-23T10:52:08Z</time>
      </trkpt>
      <trkpt lat="45.78547" lon="4.82333">
        <ele>240.95</ele>
        <time>2014-02-23T10:52:22Z</time>
      </trkpt>
      <trkpt lat="45.78522" lon="4.82342">
        <ele>242.39</ele>
        <time>2014-02-23T10:52:35Z</time>
      </trkpt>
      <trkpt lat="45.78498" lon="4.82354">
        <ele>243.83</ele>
        <time>2014-02-23T10:52:47Z</time>
      </trkpt>
      <trkpt lat="45.78482" lon="4.82355">
        <ele>244.31</ele>
        <time>2014-02-23T10:52:56Z</time>
      </trkpt>
      <trkpt lat="45.78465" lon="4.8236">
        <ele>245.75</ele>
        <time>2014-02-23T10:53:06Z</time>
      </trkpt>
      <trkpt lat="45.78455" lon="4.82364">
        <ele>246.23</ele>
        <time>2014-02-23T10:53:11Z</time>
      </trkpt>
      <trkpt lat="45.78437" lon="4.82391">
        <ele>248.16</ele>
        <time>2014-02-23T10:53:24Z</time>
      </trkpt>
      <trkpt lat="45.78428" lon="4.82435">
        <ele>249.6</ele>
        <time>2014-02-23T10:53:39Z</time>
      </trkpt>
      <trkpt lat="45.78425" lon="4.82444">
        <ele>249.6</ele>
        <time>2014-02-23T10:53:42Z</time>
      </trkpt>
      <trkpt lat="45.78406" lon="4.82487">
        <ele>249.12</ele>
        <time>2014-02-23T10:53:55Z</time>
      </trkpt>
      <trkpt lat="45.78386" lon="4.82514">
        <ele>248.16</ele>
        <time>2014-02-23T10:54:07Z</time>
      </trkpt>
      <trkpt lat="45.78354" lon="4.82504">
        <ele>248.16</ele>
        <time>2014-02-23T10:54:20Z</time>
      </trkpt>
      <trkpt lat="45.78324" lon="4.82497">
        <ele>248.16</ele>
        <time>2014-02-23T10:54:33Z</time>
      </trkpt>
      <trkpt lat="45.78286" lon="4.82501">
        <ele>247.68</ele>
        <time>2014-02-23T10:54:47Z</time>
      </trkpt>
      <trkpt lat="45.78239" lon="4.82519">
        <ele>247.68</ele>
        <time>2014-02-23T10:55:03Z</time>
      </trkpt>
      <trkpt lat="45.78219" lon="4.82512">
        <ele>247.2</ele>
        <time>2014-02-23T10:55:12Z</time>
      </trkpt>
      <trkpt lat="45.78214" lon="4.82509">
        <ele>247.2</ele>
        <time>2014-02-23T10:55:15Z</time>
      </trkpt>
      <trkpt lat="45.782" lon="4.82499">
        <ele>247.2</ele>
        <time>2014-02-23T10:55:22Z</time>
      </trkpt>
      <trkpt lat="45.78171" lon="4.82518">
        <ele>246.72</ele>
        <time>2014-02-23T10:55:33Z</time>
      </trkpt>
      <trkpt lat="45.78164" lon="4.82514">
        <ele>246.72</ele>
        <time>2014-02-23T10:55:36Z</time>
      </trkpt>
      <trkpt lat="45.7813" lon="4.82531">
        <ele>246.23</ele>
        <time>2014-02-23T10:55:49Z</time>
      </trkpt>
      <trkpt lat="45.78096" lon="4.82522">
        <ele>245.27</ele>
        <time>2014-02-23T10:56:02Z</time>
      </trkpt>
      <trkpt lat="45.78066" lon="4.82517">
        <ele>244.79</ele>
        <time>2014-02-23T10:56:15Z</time>
      </trkpt>
      <trkpt lat="45.78017" lon="4.82522">
        <ele>243.83</ele>
        <time>2014-02-23T10:56:31Z</time>
      </trkpt>
      <trkpt lat="45.77984" lon="4.82538">
        <ele>244.31</ele>
        <time>2014-02-23T10:56:43Z</time>
      </trkpt>
      <trkpt lat="45.7798" lon="4.82539">
        <ele>243.83</ele>
        <time>2014-02-23T10:56:45Z</time>
      </trkpt>
      <trkpt lat="45.77977" lon="4.82542">
        <ele>243.83</ele>
        <time>2014-02-23T10:56:50Z</time>
      </trkpt>
      <trkpt lat="45.77988" lon="4.82587">
        <ele>242.87</ele>
        <time>2014-02-23T10:57:05Z</time>
      </trkpt>
      <trkpt lat="45.7799" lon="4.82642">
        <ele>241.43</ele>
        <time>2014-02-23T10:57:21Z</time>
      </trkpt>
      <trkpt lat="45.77991" lon="4.82687">
        <ele>240.95</ele>
        <time>2014-02-23T10:57:34Z</time>
      </trkpt>
      <trkpt lat="45.77995" lon="4.82719">
        <ele>239.99</ele>
        <time>2014-02-23T10:57:44Z</time>
      </trkpt>
      <trkpt lat="45.77995" lon="4.82769">
        <ele>239.99</ele>
        <time>2014-02-23T10:58:00Z</time>
      </trkpt>
      <trkpt lat="45.77996" lon="4.82816">
        <ele>239.99</ele>
        <time>2014-02-23T10:58:13Z</time>
      </trkpt>
      <trkpt lat="45.77996" lon="4.82859">
        <ele>239.99</ele>
        <time>2014-02-23T10:58:25Z</time>
      </trkpt>
      <trkpt lat="45.77992" lon="4.82915">
        <ele>239.99</ele>
        <time>2014-02-23T10:58:41Z</time>
      </trkpt>
      <trkpt lat="45.7799" lon="4.82966">
        <ele>239.99</ele>
        <time>2014-02-23T10:58:55Z</time>
      </trkpt>
      <trkpt lat="45.77993" lon="4.83025">
        <ele>239.99</ele>
        <time>2014-02-23T10:59:09Z</time>
      </trkpt>
      <trkpt lat="45.77977" lon="4.83085">
        <ele>239.51</ele>
        <time>2014-02-23T10:59:23Z</time>
      </trkpt>
      <trkpt lat="45.7797" lon="4.83128">
        <ele>238.06</ele>
        <time>2014-02-23T10:59:32Z</time>
      </trkpt>
      <trkpt lat="45.77967" lon="4.83183">
        <ele>236.62</ele>
        <time>2014-02-23T10:59:43Z</time>
      </trkpt>
      <trkpt lat="45.77965" lon="4.83224">
        <ele>235.18</ele>
        <time>2014-02-23T10:59:53Z</time>
      </trkpt>
      <trkpt lat="45.77946" lon="4.83237">
        <ele>235.18</ele>
        <time>2014-02-23T10:59:59Z</time>
      </trkpt>
      <trkpt lat="45.77916" lon="4.83216">
        <ele>234.7</ele>
        <time>2014-02-23T11:00:09Z</time>
      </trkpt>
      <trkpt lat="45.77877" lon="4.83213">
        <ele>235.18</ele>
        <time>2014-02-23T11:00:23Z</time>
      </trkpt>
      <trkpt lat="45.77835" lon="4.83219">
        <ele>235.66</ele>
        <time>2014-02-23T11:00:39Z</time>
      </trkpt>
      <trkpt lat="45.7782" lon="4.83224">
        <ele>236.14</ele>
        <time>2014-02-23T11:00:44Z</time>
      </trkpt>
      <trkpt lat="45.77777" lon="4.83227">
        <ele>237.1</ele>
        <time>2014-02-23T11:00:58Z</time>
      </trkpt>
      <trkpt lat="45.77757" lon="4.83227">
        <ele>238.06</ele>
        <time>2014-02-23T11:01:09Z</time>
      </trkpt>
      <trkpt lat="45.77718" lon="4.8323">
        <ele>238.54</ele>
        <time>2014-02-23T11:01:21Z</time>
      </trkpt>
      <trkpt lat="45.77689" lon="4.83228">
        <ele>239.51</ele>
        <time>2014-02-23T11:01:33Z</time>
      </trkpt>
      <trkpt lat="45.77659" lon="4.8323">
        <ele>240.47</ele>
        <time>2014-02-23T11:01:47Z</time>
      </trkpt>
      <trkpt lat="45.77616" lon="4.83238">
        <ele>240.95</ele>
        <time>2014-02-23T11:02:00Z</time>
      </trkpt>
      <trkpt lat="45.77582" lon="4.83249">
        <ele>241.43</ele>
        <time>2014-02-23T11:02:12Z</time>
      </trkpt>
      <trkpt lat="45.77564" lon="4.83255">
        <ele>241.91</ele>
        <time>2014-02-23T11:02:25Z</time>
      </trkpt>
      <trkpt lat="45.77538" lon="4.8326">
        <ele>242.87</ele>
        <time>2014-02-23T11:02:37Z</time>
      </trkpt>
      <trkpt lat="45.77526" lon="4.83257">
        <ele>243.35</ele>
        <time>2014-02-23T11:02:43Z</time>
      </trkpt>
      <trkpt lat="45.77506" lon="4.83235">
        <ele>244.31</ele>
        <time>2014-02-23T11:02:56Z</time>
      </trkpt>
      <trkpt lat="45.77488" lon="4.83217">
        <ele>245.75</ele>
        <time>2014-02-23T11:03:05Z</time>
      </trkpt>
      <trkpt lat="45.77476" lon="4.83207">
        <ele>246.23</ele>
        <time>2014-02-23T11:03:10Z</time>
      </trkpt>
      <trkpt lat="45.77473" lon="4.83204">
        <ele>246.23</ele>
        <time>2014-02-23T11:03:14Z</time>
      </trkpt>
      <trkpt lat="45.7744" lon="4.83179">
        <ele>247.2</ele>
        <time>2014-02-23T11:03:27Z</time>
      </trkpt>
      <trkpt lat="45.77424" lon="4.83175">
        <ele>247.2</ele>
        <time>2014-02-23T11:03:39Z</time>
      </trkpt>
      <trkpt lat="45.77423" lon="4.83174">
        <ele>249.6</ele>
        <time>2014-02-23T11:04:42Z</time>
      </trkpt>
      <trkpt lat="45.77433" lon="4.83123">
        <ele>250.08</ele>
        <time>2014-02-23T11:04:53Z</time>
      </trkpt>
      <trkpt lat="45.77429" lon="4.83089">
        <ele>250.56</ele>
        <time>2014-02-23T11:05:04Z</time>
      </trkpt>
      <trkpt lat="45.77429" lon="4.83087">
        <ele>250.56</ele>
        <time>2014-02-23T11:05:06Z</time>
      </trkpt>
      <trkpt lat="45.7743" lon="4.83053">
        <ele>250.56</ele>
        <time>2014-02-23T11:05:18Z</time>
      </trkpt>
      <trkpt lat="45.77429" lon="4.83017">
        <ele>251.04</ele>
        <time>2014-02-23T11:05:29Z</time>
      </trkpt>
      <trkpt lat="45.77417" lon="4.82987">
        <ele>251.52</ele>
        <time>2014-02-23T11:05:40Z</time>
      </trkpt>
      <trkpt lat="45.77386" lon="4.82982">
        <ele>251.52</ele>
        <time>2014-02-23T11:05:50Z</time>
      </trkpt>
      <trkpt lat="45.77355" lon="4.82994">
        <ele>252</ele>
        <time>2014-02-23T11:06:02Z</time>
      </trkpt>
      <trkpt lat="45.77349" lon="4.82968">
        <ele>252.48</ele>
        <time>2014-02-23T11:06:12Z</time>
      </trkpt>
      <trkpt lat="45.77351" lon="4.82961">
        <ele>252.96</ele>
        <time>2014-02-23T11:06:14Z</time>
      </trkpt>
      <trkpt lat="45.77339" lon="4.8294">
        <ele>253.44</ele>
        <time>2014-02-23T11:06:22Z</time>
      </trkpt>
      <trkpt lat="45.77308" lon="4.82937">
        <ele>253.93</ele>
        <time>2014-02-23T11:06:34Z</time>
      </trkpt>
      <trkpt lat="45.77293" lon="4.82908">
        <ele>253.44</ele>
        <time>2014-02-23T11:06:45Z</time>
      </trkpt>
      <trkpt lat="45.77287" lon="4.8286">
        <ele>252.48</ele>
        <time>2014-02-23T11:06:58Z</time>
      </trkpt>
      <trkpt lat="45.77291" lon="4.82812">
        <ele>251.52</ele>
        <time>2014-02-23T11:07:09Z</time>
      </trkpt>
      <trkpt lat="45.77294" lon="4.82792">
        <ele>251.04</ele>
        <time>2014-02-23T11:07:20Z</time>
      </trkpt>
      <trkpt lat="45.77295" lon="4.82745">
        <ele>250.56</ele>
        <time>2014-02-23T11:07:33Z</time>
      </trkpt>
      <trkpt lat="45.77297" lon="4.82725">
        <ele>250.08</ele>
        <time>2014-02-23T11:07:39Z</time>
      </trkpt>
      <trkpt lat="45.77316" lon="4.82728">
        <ele>250.56</ele>
        <time>2014-02-23T11:07:48Z</time>
      </trkpt>
      <trkpt lat="45.7732" lon="4.82713">
        <ele>251.52</ele>
        <time>2014-02-23T11:07:55Z</time>
      </trkpt>
      <trkpt lat="45.77322" lon="4.82684">
        <ele>249.12</ele>
        <time>2014-02-23T11:08:04Z</time>
      </trkpt>
      <trkpt lat="45.77319" lon="4.82678">
        <ele>248.16</ele>
        <time>2014-02-23T11:08:06Z</time>
      </trkpt>
      <trkpt lat="45.77306" lon="4.82685">
        <ele>246.23</ele>
        <time>2014-02-23T11:08:11Z</time>
      </trkpt>
      <trkpt lat="45.77284" lon="4.82705">
        <ele>243.35</ele>
        <time>2014-02-23T11:08:22Z</time>
      </trkpt>
      <trkpt lat="45.77288" lon="4.82667">
        <ele>240.47</ele>
        <time>2014-02-23T11:08:31Z</time>
      </trkpt>
      <trkpt lat="45.77278" lon="4.82672">
        <ele>238.54</ele>
        <time>2014-02-23T11:08:36Z</time>
      </trkpt>
      <trkpt lat="45.77277" lon="4.82667">
        <ele>238.06</ele>
        <time>2014-02-23T11:08:38Z</time>
      </trkpt>
      <trkpt lat="45.77276" lon="4.82649">
        <ele>236.14</ele>
        <time>2014-02-23T11:08:43Z</time>
      </trkpt>
      <trkpt lat="45.77267" lon="4.82668">
        <ele>234.7</ele>
        <time>2014-02-23T11:08:50Z</time>
      </trkpt>
      <trkpt lat="45.77261" lon="4.82686">
        <ele>230.37</ele>
        <time>2014-02-23T11:09:00Z</time>
      </trkpt>
      <trkpt lat="45.77258" lon="4.82688">
        <ele>229.41</ele>
        <time>2014-02-23T11:09:02Z</time>
      </trkpt>
      <trkpt lat="45.77239" lon="4.82688">
        <ele>226.05</ele>
        <time>2014-02-23T11:09:13Z</time>
      </trkpt>
      <trkpt lat="45.77211" lon="4.82667">
        <ele>224.12</ele>
        <time>2014-02-23T11:09:23Z</time>
      </trkpt>
      <trkpt lat="45.77185" lon="4.82646">
        <ele>222.2</ele>
        <time>2014-02-23T11:09:33Z</time>
      </trkpt>
      <trkpt lat="45.77189" lon="4.82613">
        <ele>221.72</ele>
        <time>2014-02-23T11:09:44Z</time>
      </trkpt>
      <trkpt lat="45.77189" lon="4.82592">
        <ele>222.2</ele>
        <time>2014-02-23T11:09:50Z</time>
      </trkpt>
      <trkpt lat="45.77165" lon="4.82584">
        <ele>221.72</ele>
        <time>2014-02-23T11:10:02Z</time>
      </trkpt>
      <trkpt lat="45.77128" lon="4.82582">
        <ele>219.32</ele>
        <time>2014-02-23T11:10:15Z</time>
      </trkpt>
      <trkpt lat="45.77096" lon="4.82582">
        <ele>217.88</ele>
        <time>2014-02-23T11:10:26Z</time>
      </trkpt>
      <trkpt lat="45.77045" lon="4.82586">
        <ele>215.95</ele>
        <time>2014-02-23T11:10:40Z</time>
      </trkpt>
      <trkpt lat="45.7701" lon="4.82592">
        <ele>213.55</ele>
        <time>2014-02-23T11:10:55Z</time>
      </trkpt>
      <trkpt lat="45.77001" lon="4.82592">
        <ele>211.15</ele>
        <time>2014-02-23T11:11:01Z</time>
      </trkpt>
      <trkpt lat="45.76994" lon="4.82593">
        <ele>208.74</ele>
        <time>2014-02-23T11:11:05Z</time>
      </trkpt>
      <trkpt lat="45.76965" lon="4.8258">
        <ele>205.86</ele>
        <time>2014-02-23T11:11:15Z</time>
      </trkpt>
      <trkpt lat="45.76951" lon="4.8259">
        <ele>205.38</ele>
        <time>2014-02-23T11:11:20Z</time>
      </trkpt>
      <trkpt lat="45.76938" lon="4.8256">
        <ele>203.46</ele>
        <time>2014-02-23T11:11:31Z</time>
      </trkpt>
      <trkpt lat="45.76938" lon="4.82527">
        <ele>203.94</ele>
        <time>2014-02-23T11:11:42Z</time>
      </trkpt>
      <trkpt lat="45.76951" lon="4.8248">
        <ele>205.86</ele>
        <time>2014-02-23T11:11:54Z</time>
      </trkpt>
      <trkpt lat="45.76954" lon="4.82438">
        <ele>208.26</ele>
        <time>2014-02-23T11:12:06Z</time>
      </trkpt>
      <trkpt lat="45.76945" lon="4.82414">
        <ele>210.19</ele>
        <time>2014-02-23T11:12:17Z</time>
      </trkpt>
      <trkpt lat="45.7694" lon="4.82407">
        <ele>210.19</ele>
        <time>2014-02-23T11:12:20Z</time>
      </trkpt>
      <trkpt lat="45.76914" lon="4.82401">
        <ele>209.22</ele>
        <time>2014-02-23T11:12:31Z</time>
      </trkpt>
      <trkpt lat="45.769" lon="4.82393">
        <ele>206.82</ele>
        <time>2014-02-23T11:12:37Z</time>
      </trkpt>
      <trkpt lat="45.76891" lon="4.82392">
        <ele>205.38</ele>
        <time>2014-02-23T11:12:41Z</time>
      </trkpt>
      <trkpt lat="45.76883" lon="4.82396">
        <ele>202.98</ele>
        <time>2014-02-23T11:12:45Z</time>
      </trkpt>
      <trkpt lat="45.76883" lon="4.82406">
        <ele>201.05</ele>
        <time>2014-02-23T11:12:48Z</time>
      </trkpt>
      <trkpt lat="45.76896" lon="4.82416">
        <ele>198.17</ele>
        <time>2014-02-23T11:12:54Z</time>
      </trkpt>
      <trkpt lat="45.76917" lon="4.82427">
        <ele>194.32</ele>
        <time>2014-02-23T11:13:02Z</time>
      </trkpt>
      <trkpt lat="45.76928" lon="4.82445">
        <ele>191.44</ele>
        <time>2014-02-23T11:13:09Z</time>
      </trkpt>
      <trkpt lat="45.76927" lon="4.82462">
        <ele>188.08</ele>
        <time>2014-02-23T11:13:17Z</time>
      </trkpt>
      <trkpt lat="45.76925" lon="4.8246">
        <ele>187.11</ele>
        <time>2014-02-23T11:13:19Z</time>
      </trkpt>
      <trkpt lat="45.76923" lon="4.82459">
        <ele>186.15</ele>
        <time>2014-02-23T11:13:21Z</time>
      </trkpt>
      <trkpt lat="45.76919" lon="4.82451">
        <ele>185.67</ele>
        <time>2014-02-23T11:13:23Z</time>
      </trkpt>
      <trkpt lat="45.76913" lon="4.82448">
        <ele>184.23</ele>
        <time>2014-02-23T11:13:25Z</time>
      </trkpt>
      <trkpt lat="45.76908" lon="4.82458">
        <ele>182.31</ele>
        <time>2014-02-23T11:13:30Z</time>
      </trkpt>
      <trkpt lat="45.76905" lon="4.82468">
        <ele>179.9</ele>
        <time>2014-02-23T11:13:33Z</time>
      </trkpt>
      <trkpt lat="45.76888" lon="4.8247">
        <ele>177.02</ele>
        <time>2014-02-23T11:13:40Z</time>
      </trkpt>
      <trkpt lat="45.76882" lon="4.82473">
        <ele>176.06</ele>
        <time>2014-02-23T11:13:42Z</time>
      </trkpt>
      <trkpt lat="45.76867" lon="4.82478">
        <ele>172.69</ele>
        <time>2014-02-23T11:13:48Z</time>
      </trkpt>
      <trkpt lat="45.76842" lon="4.8248">
        <ele>170.77</ele>
        <time>2014-02-23T11:13:59Z</time>
      </trkpt>
      <trkpt lat="45.76843" lon="4.82488">
        <ele>170.29</ele>
        <time>2014-02-23T11:14:01Z</time>
      </trkpt>
      <trkpt lat="45.76846" lon="4.82529">
        <ele>170.29</ele>
        <time>2014-02-23T11:14:14Z</time>
      </trkpt>
      <trkpt lat="45.7685" lon="4.82572">
        <ele>170.77</ele>
        <time>2014-02-23T11:14:26Z</time>
      </trkpt>
      <trkpt lat="45.7684" lon="4.82621">
        <ele>170.77</ele>
        <time>2014-02-23T11:14:41Z</time>
      </trkpt>
      <trkpt lat="45.76839" lon="4.82647">
        <ele>170.77</ele>
        <time>2014-02-23T11:14:48Z</time>
      </trkpt>
      <trkpt lat="45.76839" lon="4.82676">
        <ele>170.77</ele>
        <time>2014-02-23T11:14:57Z</time>
      </trkpt>
      <trkpt lat="45.76828" lon="4.8271">
        <ele>170.29</ele>
        <time>2014-02-23T11:15:05Z</time>
      </trkpt>
      <trkpt lat="45.76821" lon="4.82742">
        <ele>170.29</ele>
        <time>2014-02-23T11:15:13Z</time>
      </trkpt>
      <trkpt lat="45.76812" lon="4.82777">
        <ele>170.29</ele>
        <time>2014-02-23T11:15:23Z</time>
      </trkpt>
      <trkpt lat="45.76801" lon="4.82813">
        <ele>170.29</ele>
        <time>2014-02-23T11:15:35Z</time>
      </trkpt>
      <trkpt lat="45.76796" lon="4.82822">
        <ele>171.25</ele>
        <time>2014-02-23T11:15:45Z</time>
      </trkpt>
      <trkpt lat="45.76787" lon="4.82818">
        <ele>172.21</ele>
        <time>2014-02-23T11:15:51Z</time>
      </trkpt>
      <trkpt lat="45.76752" lon="4.82782">
        <ele>171.73</ele>
        <time>2014-02-23T11:16:02Z</time>
      </trkpt>
      <trkpt lat="45.76725" lon="4.82764">
        <ele>171.73</ele>
        <time>2014-02-23T11:16:11Z</time>
      </trkpt>
      <trkpt lat="45.76708" lon="4.82768">
        <ele>169.81</ele>
        <time>2014-02-23T11:16:22Z</time>
      </trkpt>
      <trkpt lat="45.76701" lon="4.82776">
        <ele>169.81</ele>
        <time>2014-02-23T11:16:26Z</time>
      </trkpt>
      <trkpt lat="45.76686" lon="4.82803">
        <ele>169.81</ele>
        <time>2014-02-23T11:16:37Z</time>
      </trkpt>
      <trkpt lat="45.76664" lon="4.82828">
        <ele>169.33</ele>
        <time>2014-02-23T11:16:49Z</time>
      </trkpt>
      <trkpt lat="45.76649" lon="4.82843">
        <ele>169.81</ele>
        <time>2014-02-23T11:16:59Z</time>
      </trkpt>
      <trkpt lat="45.76631" lon="4.82838">
        <ele>170.29</ele>
        <time>2014-02-23T11:17:11Z</time>
      </trkpt>
      <trkpt lat="45.7663" lon="4.82836">
        <ele>170.29</ele>
        <time>2014-02-23T11:17:12Z</time>
      </trkpt>
      <trkpt lat="45.76617" lon="4.82791">
        <ele>171.25</ele>
        <time>2014-02-23T11:17:27Z</time>
      </trkpt>
      <trkpt lat="45.76602" lon="4.8276">
        <ele>172.21</ele>
        <time>2014-02-23T11:17:38Z</time>
      </trkpt>
      <trkpt lat="45.76589" lon="4.82715">
        <ele>174.14</ele>
        <time>2014-02-23T11:17:53Z</time>
      </trkpt>
      <trkpt lat="45.76584" lon="4.82687">
        <ele>176.54</ele>
        <time>2014-02-23T11:18:05Z</time>
      </trkpt>
      <trkpt lat="45.76577" lon="4.82665">
        <ele>179.42</ele>
        <time>2014-02-23T11:18:14Z</time>
      </trkpt>
      <trkpt lat="45.76574" lon="4.82673">
        <ele>179.9</ele>
        <time>2014-02-23T11:18:16Z</time>
      </trkpt>
      <trkpt lat="45.76549" lon="4.82707">
        <ele>181.35</ele>
        <time>2014-02-23T11:18:28Z</time>
      </trkpt>
      <trkpt lat="45.76521" lon="4.82716">
        <ele>184.71</ele>
        <time>2014-02-23T11:18:42Z</time>
      </trkpt>
      <trkpt lat="45.76502" lon="4.82713">
        <ele>187.11</ele>
        <time>2014-02-23T11:18:54Z</time>
      </trkpt>
      <trkpt lat="45.76495" lon="4.82706">
        <ele>188.56</ele>
        <time>2014-02-23T11:18:59Z</time>
      </trkpt>
      <trkpt lat="45.76473" lon="4.82673">
        <ele>191.92</ele>
        <time>2014-02-23T11:19:12Z</time>
      </trkpt>
      <trkpt lat="45.76451" lon="4.82668">
        <ele>194.8</ele>
        <time>2014-02-23T11:19:26Z</time>
      </trkpt>
      <trkpt lat="45.76423" lon="4.82672">
        <ele>198.17</ele>
        <time>2014-02-23T11:19:40Z</time>
      </trkpt>
      <trkpt lat="45.76398" lon="4.82659">
        <ele>202.01</ele>
        <time>2014-02-23T11:19:53Z</time>
      </trkpt>
      <trkpt lat="45.76369" lon="4.82649">
        <ele>205.38</ele>
        <time>2014-02-23T11:20:08Z</time>
      </trkpt>
      <trkpt lat="45.7634" lon="4.82664">
        <ele>208.26</ele>
        <time>2014-02-23T11:20:22Z</time>
      </trkpt>
      <trkpt lat="45.7632" lon="4.82667">
        <ele>211.15</ele>
        <time>2014-02-23T11:20:33Z</time>
      </trkpt>
      <trkpt lat="45.76305" lon="4.82659">
        <ele>214.51</ele>
        <time>2014-02-23T11:20:44Z</time>
      </trkpt>
      <trkpt lat="45.76293" lon="4.82638">
        <ele>217.88</ele>
        <time>2014-02-23T11:20:57Z</time>
      </trkpt>
      <trkpt lat="45.76282" lon="4.82583">
        <ele>221.24</ele>
        <time>2014-02-23T11:21:10Z</time>
      </trkpt>
      <trkpt lat="45.76262" lon="4.82562">
        <ele>225.09</ele>
        <time>2014-02-23T11:21:23Z</time>
      </trkpt>
      <trkpt lat="45.76264" lon="4.82572">
        <ele>224.61</ele>
        <time>2014-02-23T11:21:37Z</time>
      </trkpt>
      <trkpt lat="45.76266" lon="4.82573">
        <ele>220.76</ele>
        <time>2014-02-23T11:21:45Z</time>
      </trkpt>
      <trkpt lat="45.76265" lon="4.82574">
        <ele>218.84</ele>
        <time>2014-02-23T11:21:49Z</time>
      </trkpt>
      <trkpt lat="45.7626" lon="4.82572">
        <ele>214.99</ele>
        <time>2014-02-23T11:21:54Z</time>
      </trkpt>
      <trkpt lat="45.76259" lon="4.82573">
        <ele>214.99</ele>
        <time>2014-02-23T11:21:55Z</time>
      </trkpt>
      <trkpt lat="45.76256" lon="4.82579">
        <ele>213.55</ele>
        <time>2014-02-23T11:21:57Z</time>
      </trkpt>
      <trkpt lat="45.76254" lon="4.82584">
        <ele>212.11</ele>
        <time>2014-02-23T11:21:59Z</time>
      </trkpt>
      <trkpt lat="45.76251" lon="4.82586">
        <ele>210.67</ele>
        <time>2014-02-23T11:22:01Z</time>
      </trkpt>
      <trkpt lat="45.76248" lon="4.8259">
        <ele>209.22</ele>
        <time>2014-02-23T11:22:03Z</time>
      </trkpt>
      <trkpt lat="45.76245" lon="4.82603">
        <ele>205.86</ele>
        <time>2014-02-23T11:22:08Z</time>
      </trkpt>
      <trkpt lat="45.76239" lon="4.82609">
        <ele>203.94</ele>
        <time>2014-02-23T11:22:12Z</time>
      </trkpt>
      <trkpt lat="45.76231" lon="4.82615">
        <ele>200.09</ele>
        <time>2014-02-23T11:22:17Z</time>
      </trkpt>
      <trkpt lat="45.76231" lon="4.82616">
        <ele>200.09</ele>
        <time>2014-02-23T11:22:18Z</time>
      </trkpt>
      <trkpt lat="45.76228" lon="4.82618">
        <ele>198.65</ele>
        <time>2014-02-23T11:22:20Z</time>
      </trkpt>
      <trkpt lat="45.76224" lon="4.82618">
        <ele>197.69</ele>
        <time>2014-02-23T11:22:22Z</time>
      </trkpt>
      <trkpt lat="45.76223" lon="4.8262">
        <ele>196.25</ele>
        <time>2014-02-23T11:22:24Z</time>
      </trkpt>
      <trkpt lat="45.76213" lon="4.82618">
        <ele>192.88</ele>
        <time>2014-02-23T11:22:29Z</time>
      </trkpt>
      <trkpt lat="45.76208" lon="4.82619">
        <ele>190</ele>
        <time>2014-02-23T11:22:35Z</time>
      </trkpt>
      <trkpt lat="45.76206" lon="4.82627">
        <ele>186.63</ele>
        <time>2014-02-23T11:22:40Z</time>
      </trkpt>
      <trkpt lat="45.76202" lon="4.82625">
        <ele>186.63</ele>
        <time>2014-02-23T11:22:41Z</time>
      </trkpt>
      <trkpt lat="45.76195" lon="4.82629">
        <ele>186.63</ele>
        <time>2014-02-23T11:22:50Z</time>
      </trkpt>
      <trkpt lat="45.7619" lon="4.82612">
        <ele>186.63</ele>
        <time>2014-02-23T11:22:54Z</time>
      </trkpt>
      <trkpt lat="45.76165" lon="4.82599">
        <ele>185.67</ele>
        <time>2014-02-23T11:23:06Z</time>
      </trkpt>
      <trkpt lat="45.76146" lon="4.82596">
        <ele>185.67</ele>
        <time>2014-02-23T11:23:14Z</time>
      </trkpt>
      <trkpt lat="45.76125" lon="4.82592">
        <ele>184.71</ele>
        <time>2014-02-23T11:23:24Z</time>
      </trkpt>
      <trkpt lat="45.76097" lon="4.82579">
        <ele>184.71</ele>
        <time>2014-02-23T11:23:37Z</time>
      </trkpt>
      <trkpt lat="45.76094" lon="4.82587">
        <ele>184.71</ele>
        <time>2014-02-23T11:23:39Z</time>
      </trkpt>
      <trkpt lat="45.7609" lon="4.82645">
        <ele>182.31</ele>
        <time>2014-02-23T11:23:54Z</time>
      </trkpt>
      <trkpt lat="45.76057" lon="4.8267">
        <ele>181.35</ele>
        <time>2014-02-23T11:24:08Z</time>
      </trkpt>
      <trkpt lat="45.76039" lon="4.82683">
        <ele>181.35</ele>
        <time>2014-02-23T11:24:15Z</time>
      </trkpt>
      <trkpt lat="45.76027" lon="4.8267">
        <ele>181.35</ele>
        <time>2014-02-23T11:24:20Z</time>
      </trkpt>
      <trkpt lat="45.76009" lon="4.8267">
        <ele>181.83</ele>
        <time>2014-02-23T11:24:29Z</time>
      </trkpt>
      <trkpt lat="45.76004" lon="4.82672">
        <ele>181.83</ele>
        <time>2014-02-23T11:24:31Z</time>
      </trkpt>
      <trkpt lat="45.75977" lon="4.82662">
        <ele>182.31</ele>
        <time>2014-02-23T11:24:45Z</time>
      </trkpt>
      <trkpt lat="45.75971" lon="4.8265">
        <ele>182.31</ele>
        <time>2014-02-23T11:24:49Z</time>
      </trkpt>
      <trkpt lat="45.75946" lon="4.82615">
        <ele>185.19</ele>
        <time>2014-02-23T11:25:08Z</time>
      </trkpt>
      <trkpt lat="45.75941" lon="4.8258">
        <ele>187.59</ele>
        <time>2014-02-23T11:25:22Z</time>
      </trkpt>
      <trkpt lat="45.7592" lon="4.82559">
        <ele>190.96</ele>
        <time>2014-02-23T11:25:37Z</time>
      </trkpt>
      <trkpt lat="45.75914" lon="4.82549">
        <ele>191.44</ele>
        <time>2014-02-23T11:25:40Z</time>
      </trkpt>
      <trkpt lat="45.75919" lon="4.82512">
        <ele>194.8</ele>
        <time>2014-02-23T11:25:50Z</time>
      </trkpt>
      <trkpt lat="45.75904" lon="4.82507">
        <ele>198.17</ele>
        <time>2014-02-23T11:26:01Z</time>
      </trkpt>
      <trkpt lat="45.75875" lon="4.82516">
        <ele>201.05</ele>
        <time>2014-02-23T11:26:12Z</time>
      </trkpt>
      <trkpt lat="45.7587" lon="4.82497">
        <ele>204.42</ele>
        <time>2014-02-23T11:26:22Z</time>
      </trkpt>
      <trkpt lat="45.75863" lon="4.82491">
        <ele>207.78</ele>
        <time>2014-02-23T11:26:33Z</time>
      </trkpt>
      <trkpt lat="45.75851" lon="4.82486">
        <ele>210.67</ele>
        <time>2014-02-23T11:26:45Z</time>
      </trkpt>
      <trkpt lat="45.75839" lon="4.82472">
        <ele>214.03</ele>
        <time>2014-02-23T11:26:56Z</time>
      </trkpt>
      <trkpt lat="45.75831" lon="4.82462">
        <ele>216.91</ele>
        <time>2014-02-23T11:27:06Z</time>
      </trkpt>
      <trkpt lat="45.75827" lon="4.82454">
        <ele>220.28</ele>
        <time>2014-02-23T11:27:17Z</time>
      </trkpt>
      <trkpt lat="45.75813" lon="4.82439">
        <ele>223.16</ele>
        <time>2014-02-23T11:27:27Z</time>
      </trkpt>
      <trkpt lat="45.75799" lon="4.82425">
        <ele>226.53</ele>
        <time>2014-02-23T11:27:39Z</time>
      </trkpt>
      <trkpt lat="45.75798" lon="4.82425">
        <ele>227.01</ele>
        <time>2014-02-23T11:27:40Z</time>
      </trkpt>
      <trkpt lat="45.75787" lon="4.82392">
        <ele>230.37</ele>
        <time>2014-02-23T11:27:54Z</time>
      </trkpt>
      <trkpt lat="45.75771" lon="4.82371">
        <ele>233.26</ele>
        <time>2014-02-23T11:28:07Z</time>
      </trkpt>
      <trkpt lat="45.75771" lon="4.82353">
        <ele>236.62</ele>
        <time>2014-02-23T11:28:19Z</time>
      </trkpt>
      <trkpt lat="45.75775" lon="4.82334">
        <ele>237.1</ele>
        <time>2014-02-23T11:28:22Z</time>
      </trkpt>
      <trkpt lat="45.75781" lon="4.82315">
        <ele>240.47</ele>
        <time>2014-02-23T11:28:34Z</time>
      </trkpt>
      <trkpt lat="45.75773" lon="4.82293">
        <ele>243.83</ele>
        <time>2014-02-23T11:28:49Z</time>
      </trkpt>
      <trkpt lat="45.75771" lon="4.8229">
        <ele>244.79</ele>
        <time>2014-02-23T11:28:53Z</time>
      </trkpt>
      <trkpt lat="45.75773" lon="4.8227">
        <ele>247.68</ele>
        <time>2014-02-23T11:29:06Z</time>
      </trkpt>
      <trkpt lat="45.75765" lon="4.82228">
        <ele>251.04</ele>
        <time>2014-02-23T11:29:20Z</time>
      </trkpt>
      <trkpt lat="45.75757" lon="4.82205">
        <ele>253.93</ele>
        <time>2014-02-23T11:29:31Z</time>
      </trkpt>
      <trkpt lat="45.75748" lon="4.82206">
        <ele>254.89</ele>
        <time>2014-02-23T11:29:37Z</time>
      </trkpt>
      <trkpt lat="45.75774" lon="4.82225">
        <ele>257.77</ele>
        <time>2014-02-23T11:29:50Z</time>
      </trkpt>
      <trkpt lat="45.7578" lon="4.82219">
        <ele>258.25</ele>
        <time>2014-02-23T11:29:53Z</time>
      </trkpt>
      <trkpt lat="45.75798" lon="4.82207">
        <ele>260.17</ele>
        <time>2014-02-23T11:30:05Z</time>
      </trkpt>
      <trkpt lat="45.758" lon="4.82193">
        <ele>261.14</ele>
        <time>2014-02-23T11:30:09Z</time>
      </trkpt>
      <trkpt lat="45.75798" lon="4.82193">
        <ele>262.58</ele>
        <time>2014-02-23T11:30:23Z</time>
      </trkpt>
      <trkpt lat="45.75808" lon="4.82197">
        <ele>262.58</ele>
        <time>2014-02-23T11:30:27Z</time>
      </trkpt>
      <trkpt lat="45.75814" lon="4.82185">
        <ele>264.02</ele>
        <time>2014-02-23T11:30:35Z</time>
      </trkpt>
      <trkpt lat="45.75822" lon="4.82158">
        <ele>267.38</ele>
        <time>2014-02-23T11:30:47Z</time>
      </trkpt>
      <trkpt lat="45.75828" lon="4.82135">
        <ele>270.75</ele>
        <time>2014-02-23T11:30:59Z</time>
      </trkpt>
      <trkpt lat="45.75836" lon="4.82119">
        <ele>273.63</ele>
        <time>2014-02-23T11:31:10Z</time>
      </trkpt>
      <trkpt lat="45.75861" lon="4.82127">
        <ele>275.07</ele>
        <time>2014-02-23T11:31:25Z</time>
      </trkpt>
      <trkpt lat="45.7588" lon="4.82133">
        <ele>276.52</ele>
        <time>2014-02-23T11:31:39Z</time>
      </trkpt>
      <trkpt lat="45.75905" lon="4.82142">
        <ele>277.96</ele>
        <time>2014-02-23T11:31:50Z</time>
      </trkpt>
      <trkpt lat="45.75912" lon="4.82143">
        <ele>278.44</ele>
        <time>2014-02-23T11:31:55Z</time>
      </trkpt>
      <trkpt lat="45.75925" lon="4.82146">
        <ele>279.4</ele>
        <time>2014-02-23T11:32:01Z</time>
      </trkpt>
      <trkpt lat="45.75954" lon="4.82163">
        <ele>281.8</ele>
        <time>2014-02-23T11:32:17Z</time>
      </trkpt>
      <trkpt lat="45.75963" lon="4.82174">
        <ele>283.25</ele>
        <time>2014-02-23T11:32:24Z</time>
      </trkpt>
      <trkpt lat="45.75963" lon="4.8219">
        <ele>284.21</ele>
        <time>2014-02-23T11:32:29Z</time>
      </trkpt>
      <trkpt lat="45.75968" lon="4.82227">
        <ele>286.13</ele>
        <time>2014-02-23T11:32:42Z</time>
      </trkpt>
      <trkpt lat="45.75988" lon="4.82263">
        <ele>288.53</ele>
        <time>2014-02-23T11:32:56Z</time>
      </trkpt>
      <trkpt lat="45.75999" lon="4.82265">
        <ele>288.53</ele>
        <time>2014-02-23T11:33:02Z</time>
      </trkpt>
      <trkpt lat="45.76011" lon="4.82266">
        <ele>288.53</ele>
        <time>2014-02-23T11:33:08Z</time>
      </trkpt>
      <trkpt lat="45.76019" lon="4.82265">
        <ele>289.97</ele>
        <time>2014-02-23T11:33:12Z</time>
      </trkpt>
      <trkpt lat="45.76036" lon="4.8229">
        <ele>291.9</ele>
        <time>2014-02-23T11:33:28Z</time>
      </trkpt>
      <trkpt lat="45.76045" lon="4.82316">
        <ele>291.9</ele>
        <time>2014-02-23T11:33:37Z</time>
      </trkpt>
      <trkpt lat="45.7605" lon="4.8232">
        <ele>291.42</ele>
        <time>2014-02-23T11:33:40Z</time>
      </trkpt>
      <trkpt lat="45.76065" lon="4.82329">
        <ele>291.9</ele>
        <time>2014-02-23T11:33:47Z</time>
      </trkpt>
      <trkpt lat="45.76069" lon="4.8233">
        <ele>292.38</ele>
        <time>2014-02-23T11:33:50Z</time>
      </trkpt>
      <trkpt lat="45.76087" lon="4.82339">
        <ele>292.86</ele>
        <time>2014-02-23T11:33:57Z</time>
      </trkpt>
      <trkpt lat="45.76098" lon="4.82339">
        <ele>293.82</ele>
        <time>2014-02-23T11:34:02Z</time>
      </trkpt>
      <trkpt lat="45.76113" lon="4.82333">
        <ele>295.74</ele>
        <time>2014-02-23T11:34:13Z</time>
      </trkpt>
      <trkpt lat="45.76131" lon="4.82315">
        <ele>296.7</ele>
        <time>2014-02-23T11:34:24Z</time>
      </trkpt>
      <trkpt lat="45.76157" lon="4.8231">
        <ele>296.7</ele>
        <time>2014-02-23T11:34:33Z</time>
      </trkpt>
      <trkpt lat="45.76174" lon="4.82312">
        <ele>296.22</ele>
        <time>2014-02-23T11:34:41Z</time>
      </trkpt>
      <trkpt lat="45.7618" lon="4.82302">
        <ele>297.67</ele>
        <time>2014-02-23T11:34:50Z</time>
      </trkpt>
      <trkpt lat="45.76197" lon="4.82296">
        <ele>301.51</ele>
        <time>2014-02-23T11:34:59Z</time>
      </trkpt>
      <trkpt lat="45.76211" lon="4.82297">
        <ele>304.39</ele>
        <time>2014-02-23T11:35:07Z</time>
      </trkpt>
      <trkpt lat="45.76213" lon="4.82297">
        <ele>304.39</ele>
        <time>2014-02-23T11:35:08Z</time>
      </trkpt>
      <trkpt lat="45.76231" lon="4.82307">
        <ele>302.95</ele>
        <time>2014-02-23T11:35:17Z</time>
      </trkpt>
      <trkpt lat="45.76239" lon="4.82304">
        <ele>301.51</ele>
        <time>2014-02-23T11:35:21Z</time>
      </trkpt>
      <trkpt lat="45.76248" lon="4.82305">
        <ele>304.39</ele>
        <time>2014-02-23T11:35:28Z</time>
      </trkpt>
      <trkpt lat="45.76251" lon="4.82295">
        <ele>307.28</ele>
        <time>2014-02-23T11:35:36Z</time>
      </trkpt>
      <trkpt lat="45.76255" lon="4.82297">
        <ele>308.24</ele>
        <time>2014-02-23T11:35:39Z</time>
      </trkpt>
      <trkpt lat="45.76263" lon="4.82297">
        <ele>310.64</ele>
        <time>2014-02-23T11:35:44Z</time>
      </trkpt>
      <trkpt lat="45.76264" lon="4.82296">
        <ele>313.05</ele>
        <time>2014-02-23T11:35:48Z</time>
      </trkpt>
      <trkpt lat="45.7627" lon="4.82289">
        <ele>313.53</ele>
        <time>2014-02-23T11:36:03Z</time>
      </trkpt>
      <trkpt lat="45.76288" lon="4.82258">
        <ele>313.05</ele>
        <time>2014-02-23T11:36:24Z</time>
      </trkpt>
      <trkpt lat="45.76298" lon="4.82229">
        <ele>312.57</ele>
        <time>2014-02-23T11:36:42Z</time>
      </trkpt>
      <trkpt lat="45.76299" lon="4.82221">
        <ele>312.57</ele>
        <time>2014-02-23T11:36:52Z</time>
      </trkpt>
      <trkpt lat="45.76309" lon="4.82217">
        <ele>311.6</ele>
        <time>2014-02-23T11:37:01Z</time>
      </trkpt>
      <trkpt lat="45.76315" lon="4.82219">
        <ele>311.6</ele>
        <time>2014-02-23T11:37:07Z</time>
      </trkpt>
      <trkpt lat="45.76337" lon="4.82229">
        <ele>310.64</ele>
        <time>2014-02-23T11:37:25Z</time>
      </trkpt>
      <trkpt lat="45.76354" lon="4.82224">
        <ele>310.16</ele>
        <time>2014-02-23T11:37:38Z</time>
      </trkpt>
      <trkpt lat="45.76361" lon="4.82182">
        <ele>309.2</ele>
        <time>2014-02-23T11:37:51Z</time>
      </trkpt>
      <trkpt lat="45.7634" lon="4.82155">
        <ele>308.24</ele>
        <time>2014-02-23T11:38:02Z</time>
      </trkpt>
      <trkpt lat="45.76328" lon="4.82123">
        <ele>307.76</ele>
        <time>2014-02-23T11:38:11Z</time>
      </trkpt>
      <trkpt lat="45.7632" lon="4.82084">
        <ele>305.84</ele>
        <time>2014-02-23T11:38:21Z</time>
      </trkpt>
      <trkpt lat="45.76311" lon="4.82047">
        <ele>303.91</ele>
        <time>2014-02-23T11:38:31Z</time>
      </trkpt>
      <trkpt lat="45.76307" lon="4.82013">
        <ele>301.51</ele>
        <time>2014-02-23T11:38:41Z</time>
      </trkpt>
      <trkpt lat="45.76307" lon="4.81998">
        <ele>301.51</ele>
        <time>2014-02-23T11:38:44Z</time>
      </trkpt>
      <trkpt lat="45.76313" lon="4.8196">
        <ele>300.07</ele>
        <time>2014-02-23T11:38:52Z</time>
      </trkpt>
      <trkpt lat="45.76323" lon="4.81919">
        <ele>299.59</ele>
        <time>2014-02-23T11:39:02Z</time>
      </trkpt>
      <trkpt lat="45.76333" lon="4.81881">
        <ele>299.11</ele>
        <time>2014-02-23T11:39:11Z</time>
      </trkpt>
      <trkpt lat="45.76335" lon="4.81856">
        <ele>299.11</ele>
        <time>2014-02-23T11:39:20Z</time>
      </trkpt>
      <trkpt lat="45.76333" lon="4.81805">
        <ele>300.07</ele>
        <time>2014-02-23T11:39:37Z</time>
      </trkpt>
      <trkpt lat="45.76333" lon="4.81755">
        <ele>300.55</ele>
        <time>2014-02-23T11:39:51Z</time>
      </trkpt>
      <trkpt lat="45.76332" lon="4.81715">
        <ele>301.51</ele>
        <time>2014-02-23T11:40:03Z</time>
      </trkpt>
      <trkpt lat="45.76327" lon="4.81671">
        <ele>302.47</ele>
        <time>2014-02-23T11:40:16Z</time>
      </trkpt>
      <trkpt lat="45.7632" lon="4.81618">
        <ele>303.43</ele>
        <time>2014-02-23T11:40:31Z</time>
      </trkpt>
      <trkpt lat="45.76315" lon="4.81566">
        <ele>303.91</ele>
        <time>2014-02-23T11:40:46Z</time>
      </trkpt>
      <trkpt lat="45.76306" lon="4.81522">
        <ele>304.39</ele>
        <time>2014-02-23T11:40:59Z</time>
      </trkpt>
      <trkpt lat="45.76303" lon="4.81485">
        <ele>303.91</ele>
        <time>2014-02-23T11:41:11Z</time>
      </trkpt>
      <trkpt lat="45.76301" lon="4.81444">
        <ele>304.88</ele>
        <time>2014-02-23T11:41:22Z</time>
      </trkpt>
      <trkpt lat="45.76307" lon="4.81418">
        <ele>305.36</ele>
        <time>2014-02-23T11:41:33Z</time>
      </trkpt>
      <trkpt lat="45.76307" lon="4.81419">
        <ele>305.36</ele>
        <time>2014-02-23T11:41:34Z</time>
      </trkpt>
      <trkpt lat="45.76311" lon="4.81421">
        <ele>305.84</ele>
        <time>2014-02-23T11:41:38Z</time>
      </trkpt>
      <trkpt lat="45.76327" lon="4.8138">
        <ele>302.95</ele>
        <time>2014-02-23T11:41:51Z</time>
      </trkpt>
      <trkpt lat="45.76343" lon="4.8134">
        <ele>302.47</ele>
        <time>2014-02-23T11:42:06Z</time>
      </trkpt>
      <trkpt lat="45.76366" lon="4.81345">
        <ele>300.55</ele>
        <time>2014-02-23T11:42:14Z</time>
      </trkpt>
      <trkpt lat="45.76377" lon="4.8133">
        <ele>298.63</ele>
        <time>2014-02-23T11:42:23Z</time>
      </trkpt>
      <trkpt lat="45.76397" lon="4.81308">
        <ele>297.67</ele>
        <time>2014-02-23T11:42:32Z</time>
      </trkpt>
      <trkpt lat="45.76416" lon="4.81292">
        <ele>295.26</ele>
        <time>2014-02-23T11:42:42Z</time>
      </trkpt>
      <trkpt lat="45.76437" lon="4.81268">
        <ele>293.34</ele>
        <time>2014-02-23T11:42:52Z</time>
      </trkpt>
      <trkpt lat="45.76456" lon="4.81237">
        <ele>289.97</ele>
        <time>2014-02-23T11:43:03Z</time>
      </trkpt>
      <trkpt lat="45.76468" lon="4.81215">
        <ele>288.05</ele>
        <time>2014-02-23T11:43:11Z</time>
      </trkpt>
      <trkpt lat="45.76483" lon="4.81183">
        <ele>286.13</ele>
        <time>2014-02-23T11:43:21Z</time>
      </trkpt>
      <trkpt lat="45.76499" lon="4.81146">
        <ele>283.73</ele>
        <time>2014-02-23T11:43:32Z</time>
      </trkpt>
      <trkpt lat="45.7652" lon="4.8111">
        <ele>280.84</ele>
        <time>2014-02-23T11:43:44Z</time>
      </trkpt>
      <trkpt lat="45.7653" lon="4.81069">
        <ele>277.96</ele>
        <time>2014-02-23T11:43:55Z</time>
      </trkpt>
      <trkpt lat="45.76551" lon="4.81037">
        <ele>275.56</ele>
        <time>2014-02-23T11:44:06Z</time>
      </trkpt>
      <trkpt lat="45.76578" lon="4.81012">
        <ele>272.67</ele>
        <time>2014-02-23T11:44:19Z</time>
      </trkpt>
      <trkpt lat="45.76601" lon="4.80975">
        <ele>269.79</ele>
        <time>2014-02-23T11:44:31Z</time>
      </trkpt>
      <trkpt lat="45.76633" lon="4.80959">
        <ele>266.9</ele>
        <time>2014-02-23T11:44:43Z</time>
      </trkpt>
      <trkpt lat="45.76673" lon="4.80947">
        <ele>264.02</ele>
        <time>2014-02-23T11:44:56Z</time>
      </trkpt>
      <trkpt lat="45.767" lon="4.80945">
        <ele>261.14</ele>
        <time>2014-02-23T11:45:08Z</time>
      </trkpt>
      <trkpt lat="45.76726" lon="4.80947">
        <ele>259.69</ele>
        <time>2014-02-23T11:45:18Z</time>
      </trkpt>
      <trkpt lat="45.76764" lon="4.80961">
        <ele>257.29</ele>
        <time>2014-02-23T11:45:30Z</time>
      </trkpt>
      <trkpt lat="45.76795" lon="4.80965">
        <ele>254.41</ele>
        <time>2014-02-23T11:45:42Z</time>
      </trkpt>
      <trkpt lat="45.76823" lon="4.80969">
        <ele>252.48</ele>
        <time>2014-02-23T11:45:53Z</time>
      </trkpt>
      <trkpt lat="45.76857" lon="4.80968">
        <ele>250.08</ele>
        <time>2014-02-23T11:46:05Z</time>
      </trkpt>
      <trkpt lat="45.76887" lon="4.80974">
        <ele>247.2</ele>
        <time>2014-02-23T11:46:17Z</time>
      </trkpt>
      <trkpt lat="45.76906" lon="4.80984">
        <ele>245.27</ele>
        <time>2014-02-23T11:46:25Z</time>
      </trkpt>
      <trkpt lat="45.76932" lon="4.81011">
        <ele>243.35</ele>
        <time>2014-02-23T11:46:36Z</time>
      </trkpt>
      <trkpt lat="45.76953" lon="4.81006">
        <ele>241.43</ele>
        <time>2014-02-23T11:46:45Z</time>
      </trkpt>
      <trkpt lat="45.76955" lon="4.81007">
        <ele>241.43</ele>
        <time>2014-02-23T11:46:46Z</time>
      </trkpt>
      <trkpt lat="45.76984" lon="4.81003">
        <ele>239.51</ele>
        <time>2014-02-23T11:46:58Z</time>
      </trkpt>
      <trkpt lat="45.76997" lon="4.80966">
        <ele>236.62</ele>
        <time>2014-02-23T11:47:11Z</time>
      </trkpt>
      <trkpt lat="45.76987" lon="4.80952">
        <ele>236.14</ele>
        <time>2014-02-23T11:47:17Z</time>
      </trkpt>
      <trkpt lat="45.76974" lon="4.80917">
        <ele>234.7</ele>
        <time>2014-02-23T11:47:30Z</time>
      </trkpt>
      <trkpt lat="45.76976" lon="4.80913">
        <ele>234.7</ele>
        <time>2014-02-23T11:47:32Z</time>
      </trkpt>
      <trkpt lat="45.76995" lon="4.80908">
        <ele>231.33</ele>
        <time>2014-02-23T11:47:40Z</time>
      </trkpt>
      <trkpt lat="45.76997" lon="4.80907">
        <ele>231.33</ele>
        <time>2014-02-23T11:47:41Z</time>
      </trkpt>
      <trkpt lat="45.77007" lon="4.80907">
        <ele>228.93</ele>
        <time>2014-02-23T11:47:45Z</time>
      </trkpt>
      <trkpt lat="45.77014" lon="4.80908">
        <ele>227.49</ele>
        <time>2014-02-23T11:47:48Z</time>
      </trkpt>
      <trkpt lat="45.77024" lon="4.80907">
        <ele>225.09</ele>
        <time>2014-02-23T11:47:52Z</time>
      </trkpt>
      <trkpt lat="45.77034" lon="4.80904">
        <ele>222.68</ele>
        <time>2014-02-23T11:47:56Z</time>
      </trkpt>
      <trkpt lat="45.77043" lon="4.80899">
        <ele>220.28</ele>
        <time>2014-02-23T11:48:00Z</time>
      </trkpt>
      <trkpt lat="45.77048" lon="4.80896">
        <ele>218.36</ele>
        <time>2014-02-23T11:48:02Z</time>
      </trkpt>
      <trkpt lat="45.77053" lon="4.80897">
        <ele>217.4</ele>
        <time>2014-02-23T11:48:04Z</time>
      </trkpt>
      <trkpt lat="45.77063" lon="4.80895">
        <ele>215.95</ele>
        <time>2014-02-23T11:48:07Z</time>
      </trkpt>
      <trkpt lat="45.77075" lon="4.80894">
        <ele>213.55</ele>
        <time>2014-02-23T11:48:11Z</time>
      </trkpt>
      <trkpt lat="45.77085" lon="4.80895">
        <ele>211.63</ele>
        <time>2014-02-23T11:48:15Z</time>
      </trkpt>
      <trkpt lat="45.77094" lon="4.8089">
        <ele>209.7</ele>
        <time>2014-02-23T11:48:19Z</time>
      </trkpt>
      <trkpt lat="45.771" lon="4.80887">
        <ele>208.26</ele>
        <time>2014-02-23T11:48:22Z</time>
      </trkpt>
      <trkpt lat="45.77108" lon="4.80884">
        <ele>205.86</ele>
        <time>2014-02-23T11:48:26Z</time>
      </trkpt>
      <trkpt lat="45.77117" lon="4.8088">
        <ele>203.46</ele>
        <time>2014-02-23T11:48:30Z</time>
      </trkpt>
      <trkpt lat="45.77137" lon="4.80875">
        <ele>200.09</ele>
        <time>2014-02-23T11:48:39Z</time>
      </trkpt>
      <trkpt lat="45.7716" lon="4.80869">
        <ele>197.21</ele>
        <time>2014-02-23T11:48:48Z</time>
      </trkpt>
      <trkpt lat="45.77186" lon="4.80862">
        <ele>193.84</ele>
        <time>2014-02-23T11:48:58Z</time>
      </trkpt>
      <trkpt lat="45.77206" lon="4.80866">
        <ele>191.92</ele>
        <time>2014-02-23T11:49:05Z</time>
      </trkpt>
      <trkpt lat="45.77235" lon="4.80856">
        <ele>188.56</ele>
        <time>2014-02-23T11:49:16Z</time>
      </trkpt>
      <trkpt lat="45.77243" lon="4.80853">
        <ele>187.59</ele>
        <time>2014-02-23T11:49:19Z</time>
      </trkpt>
      <trkpt lat="45.77266" lon="4.80849">
        <ele>186.15</ele>
        <time>2014-02-23T11:49:29Z</time>
      </trkpt>
      <trkpt lat="45.77293" lon="4.8083">
        <ele>184.23</ele>
        <time>2014-02-23T11:49:42Z</time>
      </trkpt>
      <trkpt lat="45.77322" lon="4.80812">
        <ele>182.79</ele>
        <time>2014-02-23T11:49:53Z</time>
      </trkpt>
      <trkpt lat="45.77343" lon="4.80823">
        <ele>181.83</ele>
        <time>2014-02-23T11:50:04Z</time>
      </trkpt>
      <trkpt lat="45.77358" lon="4.80844">
        <ele>180.87</ele>
        <time>2014-02-23T11:50:14Z</time>
      </trkpt>
      <trkpt lat="45.77361" lon="4.80865">
        <ele>180.38</ele>
        <time>2014-02-23T11:50:27Z</time>
      </trkpt>
      <trkpt lat="45.77362" lon="4.80869">
        <ele>180.38</ele>
        <time>2014-02-23T11:50:32Z</time>
      </trkpt>
      <trkpt lat="45.77385" lon="4.80903">
        <ele>180.38</ele>
        <time>2014-02-23T11:50:42Z</time>
      </trkpt>
      <trkpt lat="45.77385" lon="4.80928">
        <ele>180.87</ele>
        <time>2014-02-23T11:50:51Z</time>
      </trkpt>
      <trkpt lat="45.77393" lon="4.80943">
        <ele>180.87</ele>
        <time>2014-02-23T11:50:58Z</time>
      </trkpt>
      <trkpt lat="45.77414" lon="4.80927">
        <ele>181.35</ele>
        <time>2014-02-23T11:51:10Z</time>
      </trkpt>
      <trkpt lat="45.77418" lon="4.80922">
        <ele>181.35</ele>
        <time>2014-02-23T11:51:12Z</time>
      </trkpt>
      <trkpt lat="45.77451" lon="4.80892">
        <ele>180.87</ele>
        <time>2014-02-23T11:51:24Z</time>
      </trkpt>
      <trkpt lat="45.77477" lon="4.80876">
        <ele>181.35</ele>
        <time>2014-02-23T11:51:34Z</time>
      </trkpt>
      <trkpt lat="45.77487" lon="4.80898">
        <ele>182.31</ele>
        <time>2014-02-23T11:51:42Z</time>
      </trkpt>
      <trkpt lat="45.77484" lon="4.80932">
        <ele>183.27</ele>
        <time>2014-02-23T11:51:51Z</time>
      </trkpt>
      <trkpt lat="45.77481" lon="4.80978">
        <ele>183.75</ele>
        <time>2014-02-23T11:52:02Z</time>
      </trkpt>
      <trkpt lat="45.77483" lon="4.81013">
        <ele>183.75</ele>
        <time>2014-02-23T11:52:13Z</time>
      </trkpt>
      <trkpt lat="45.77497" lon="4.81024">
        <ele>183.75</ele>
        <time>2014-02-23T11:52:21Z</time>
      </trkpt>
      <trkpt lat="45.77498" lon="4.81055">
        <ele>183.75</ele>
        <time>2014-02-23T11:52:30Z</time>
      </trkpt>
      <trkpt lat="45.77503" lon="4.81081">
        <ele>183.27</ele>
        <time>2014-02-23T11:52:38Z</time>
      </trkpt>
      <trkpt lat="45.775" lon="4.81126">
        <ele>182.31</ele>
        <time>2014-02-23T11:52:48Z</time>
      </trkpt>
      <trkpt lat="45.77496" lon="4.81165">
        <ele>182.31</ele>
        <time>2014-02-23T11:52:58Z</time>
      </trkpt>
      <trkpt lat="45.77495" lon="4.81197">
        <ele>181.83</ele>
        <time>2014-02-23T11:53:07Z</time>
      </trkpt>
      <trkpt lat="45.77488" lon="4.81227">
        <ele>182.79</ele>
        <time>2014-02-23T11:53:16Z</time>
      </trkpt>
      <trkpt lat="45.77485" lon="4.81246">
        <ele>182.31</ele>
        <time>2014-02-23T11:53:22Z</time>
      </trkpt>
      <trkpt lat="45.77483" lon="4.81287">
        <ele>182.79</ele>
        <time>2014-02-23T11:53:33Z</time>
      </trkpt>
      <trkpt lat="45.77481" lon="4.81316">
        <ele>182.79</ele>
        <time>2014-02-23T11:53:42Z</time>
      </trkpt>
      <trkpt lat="45.7748" lon="4.81347">
        <ele>182.79</ele>
        <time>2014-02-23T11:53:51Z</time>
      </trkpt>
      <trkpt lat="45.77474" lon="4.81382">
        <ele>182.79</ele>
        <time>2014-02-23T11:53:59Z</time>
      </trkpt>
      <trkpt lat="45.77476" lon="4.81427">
        <ele>182.79</ele>
        <time>2014-02-23T11:54:09Z</time>
      </trkpt>
      <trkpt lat="45.77483" lon="4.81493">
        <ele>182.31</ele>
        <time>2014-02-23T11:54:21Z</time>
      </trkpt>
      <trkpt lat="45.77464" lon="4.8163">
        <ele>182.31</ele>
        <time>2014-02-23T11:54:38Z</time>
      </trkpt>
    </trkseg>
  </trk>
</gpx>